Observation data for Palo Duro Canyon State Park Floor on 08/14/2020      Previous  Date       Current Mesonet Observations  Soil Data  Daily Summary Page  Observations in Plain Language
KPD2 140500Z 35006KT 31/18 A2996 RMK A01 T03080179  RH  046%=      5-min Rain = 0
KPD2 140501Z 36006KT 31/18 A2996 RMK A01 T03080178  RH  046%=      5-min Rain = 0
KPD2 140502Z 35005KT 31/18 A2996 RMK A01 T03070177  RH  046%=      5-min Rain = 0
KPD2 140503Z 01008KT 31/18 A2996 RMK A01 T03070178  RH  046%=      5-min Rain = 0
KPD2 140504Z 35006KT 31/18 A2996 RMK A01 T03070177  RH  046%=      5-min Rain = 0
KPD2 140505Z 33006KT 31/18 A2996 RMK A01 T03080178  RH  046%=      5-min Rain = 0
KPD2 140506Z 36007KT 31/18 A2996 RMK A01 T03080177  RH  046%=      5-min Rain = 0
KPD2 140507Z 33005G10KT 31/18 A2996 RMK A01 T03080178  RH  046%=      5-min Rain = 0
KPD2 140508Z 35006KT 31/18 A2996 RMK A01 T03080177  RH  046%=      5-min Rain = 0
KPD2 140509Z 36005KT 31/18 A2996 RMK A01 T03080177  RH  046%=      5-min Rain = 0
KPD2 140510Z 02005G10KT 31/18 A2996 RMK A01 T03070177  RH  046%=      5-min Rain = 0
KPD2 140511Z 01007G12KT 31/18 A2996 RMK A01 T03070176  RH  046%=      5-min Rain = 0
KPD2 140512Z 36005KT 31/18 A2996 RMK A01 T03070177  RH  046%=      5-min Rain = 0
KPD2 140513Z 36005KT 31/18 A2996 RMK A01 T03060177  RH  046%=      5-min Rain = 0
KPD2 140514Z 01010G19KT 31/18 A2996 RMK A01 T03050176  RH  046%=      5-min Rain = 0
KPD2 140515Z 00010KT 30/18 A2996 RMK A01 T03040175  RH  046%=      5-min Rain = 0
KPD2 140516Z 04006KT 30/17 A2996 RMK A01 T03030174  RH  046%=      5-min Rain = 0
KPD2 140517Z 01009KT 30/17 A2996 RMK A01 T03030174  RH  046%=      5-min Rain = 0
KPD2 140518Z 03005KT 30/17 A2996 RMK A01 T03030173  RH  046%=      5-min Rain = 0
KPD2 140519Z 02008G15KT 30/17 A2996 RMK A01 T03020174  RH  046%=      5-min Rain = 0
KPD2 140520Z 03006KT 30/18 A2996 RMK A01 T03020175  RH  047%=      5-min Rain = 0
KPD2 140521Z 02007KT 30/18 A2996 RMK A01 T03010176  RH  047%=      5-min Rain = 0
KPD2 140522Z 03007KT 30/18 A2996 RMK A01 T03010177  RH  047%=      5-min Rain = 0
KPD2 140523Z 03007KT 30/18 A2996 RMK A01 T03000176  RH  048%=      5-min Rain = 0
KPD2 140524Z 02008KT 30/18 A2996 RMK A01 T02990178  RH  048%=      5-min Rain = 0
KPD2 140525Z 03008KT 30/18 A2996 RMK A01 T02980177  RH  048%=      5-min Rain = 0
KPD2 140526Z 06009KT 30/18 A2996 RMK A01 T02970178  RH  049%=      5-min Rain = 0
KPD2 140527Z 05009G17KT 30/18 A2996 RMK A01 T02970179  RH  049%=      5-min Rain = 0
KPD2 140528Z 03010KT 30/18 A2996 RMK A01 T02970180  RH  050%=      5-min Rain = 0
KPD2 140529Z 05009KT 30/18 A2996 RMK A01 T02960180  RH  049%=      5-min Rain = 0
KPD2 140530Z 04007KT 30/18 A2996 RMK A01 T02960180  RH  050%=      5-min Rain = 0
KPD2 140531Z 03008KT 30/18 A2996 RMK A01 T02960179  RH  049%=      5-min Rain = 0
KPD2 140532Z 04009G14KT 30/18 A2996 RMK A01 T02960179  RH  050%=      5-min Rain = 0
KPD2 140533Z 04008KT 30/18 A2996 RMK A01 T02950179  RH  050%=      5-min Rain = 0
KPD2 140534Z 04008KT 30/18 A2996 RMK A01 T02950179  RH  050%=      5-min Rain = 0
KPD2 140535Z 04008KT 30/18 A2996 RMK A01 T02950179  RH  050%=      5-min Rain = 0
KPD2 140536Z 05006G11KT 30/18 A2996 RMK A01 T02950178  RH  049%=      5-min Rain = 0
KPD2 140537Z 03005KT 29/18 A2996 RMK A01 T02940178  RH  050%=      5-min Rain = 0
KPD2 140538Z 03007KT 29/18 A2996 RMK A01 T02930178  RH  050%=      5-min Rain = 0
KPD2 140539Z 05005G11KT 29/18 A2996 RMK A01 T02930178  RH  050%=      5-min Rain = 0
KPD2 140540Z 04006KT 29/18 A2996 RMK A01 T02920178  RH  050%=      5-min Rain = 0
KPD2 140541Z 05004KT 29/18 A2997 RMK A01 T02930178  RH  050%=      5-min Rain = 0
KPD2 140542Z 06006G11KT 29/18 A2997 RMK A01 T02920178  RH  050%=      5-min Rain = 0
KPD2 140543Z 01004KT 29/18 A2997 RMK A01 T02930178  RH  050%=      5-min Rain = 0
KPD2 140544Z 06001KT 29/18 A2997 RMK A01 T02920177  RH  050%=      5-min Rain = 0
KPD2 140545Z 26004KT 29/18 A2997 RMK A01 T02920177  RH  050%=      5-min Rain = 0
KPD2 140546Z 25004KT 29/18 A2997 RMK A01 T02910177  RH  050%=      5-min Rain = 0
KPD2 140547Z 23004KT 29/18 A2997 RMK A01 T02910177  RH  050%=      5-min Rain = 0
KPD2 140548Z 23003KT 29/18 A2997 RMK A01 T02910179  RH  051%=      5-min Rain = 0
KPD2 140549Z 26002KT 29/18 A2997 RMK A01 T02900178  RH  051%=      5-min Rain = 0
KPD2 140550Z 00005KT 29/18 A2997 RMK A01 T02900178  RH  051%=      5-min Rain = 0
KPD2 140551Z 34004KT 29/18 A2997 RMK A01 T02890178  RH  051%=      5-min Rain = 0
KPD2 140552Z 25004KT 29/18 A2997 RMK A01 T02900179  RH  051%=      5-min Rain = 0
KPD2 140553Z 32004KT 29/18 A2997 RMK A01 T02910179  RH  051%=      5-min Rain = 0
KPD2 140554Z 00001KT 29/18 A2997 RMK A01 T02910180  RH  051%=      5-min Rain = 0
KPD2 140555Z 17001KT 29/18 A2997 RMK A01 T02920181  RH  051%=      5-min Rain = 0
KPD2 140556Z 22003KT 29/18 A2997 RMK A01 T02920180  RH  051%=      5-min Rain = 0
KPD2 140557Z 23004KT 29/18 A2997 RMK A01 T02920180  RH  051%=      5-min Rain = 0
KPD2 140558Z 20005KT 29/18 A2997 RMK A01 T02910180  RH  051%=      5-min Rain = 0
KPD2 140559Z 13005KT 29/18 A2997 RMK A01 T02910180  RH  051%=      5-min Rain = 0
KPD2 140600Z 22001KT 29/18 A2997 RMK A01 T02900180  RH  051%=      5-min Rain = 0
KPD2 140601Z 21003KT 29/18 A2997 RMK A01 T02900180  RH  052%=      5-min Rain = 0
KPD2 140602Z 22003KT 29/18 A2997 RMK A01 T02890179  RH  051%=      5-min Rain = 0
KPD2 140603Z 15006KT 29/18 A2997 RMK A01 T02890179  RH  051%=      5-min Rain = 0
KPD2 140604Z 16007KT 29/18 A2997 RMK A01 T02880178  RH  051%=      5-min Rain = 0
KPD2 140605Z 15008KT 29/18 A2997 RMK A01 T02870177  RH  052%=      5-min Rain = 0
KPD2 140606Z 15007KT 29/18 A2997 RMK A01 T02860178  RH  052%=      5-min Rain = 0
KPD2 140607Z 15008KT 29/18 A2997 RMK A01 T02850177  RH  052%=      5-min Rain = 0
KPD2 140608Z 15008KT 28/18 A2997 RMK A01 T02840177  RH  052%=      5-min Rain = 0
KPD2 140609Z 14006KT 28/18 A2997 RMK A01 T02830177  RH  053%=      5-min Rain = 0
KPD2 140610Z 15004KT 28/18 A2997 RMK A01 T02820177  RH  053%=      5-min Rain = 0
KPD2 140611Z 13006KT 28/18 A2997 RMK A01 T02820177  RH  053%=      5-min Rain = 0
KPD2 140612Z 15005KT 28/18 A2997 RMK A01 T02810177  RH  053%=      5-min Rain = 0
KPD2 140613Z 15005KT 28/18 A2997 RMK A01 T02810177  RH  053%=      5-min Rain = 0
KPD2 140614Z 15006KT 28/18 A2997 RMK A01 T02800178  RH  054%=      5-min Rain = 0
KPD2 140615Z 16004KT 28/18 A2997 RMK A01 T02800178  RH  054%=      5-min Rain = 0
KPD2 140616Z 16003KT 28/18 A2997 RMK A01 T02800177  RH  054%=      5-min Rain = 0
KPD2 140617Z 16003KT 28/18 A2997 RMK A01 T02800177  RH  053%=      5-min Rain = 0
KPD2 140618Z 14003KT 28/18 A2997 RMK A01 T02800177  RH  054%=      5-min Rain = 0
KPD2 140619Z 13003KT 28/18 A2997 RMK A01 T02800177  RH  054%=      5-min Rain = 0
KPD2 140620Z 14005KT 28/18 A2997 RMK A01 T02790177  RH  054%=      5-min Rain = 0
KPD2 140621Z 13006KT 28/18 A2997 RMK A01 T02780178  RH  054%=      5-min Rain = 0
KPD2 140622Z 14005KT 28/18 A2997 RMK A01 T02780178  RH  055%=      5-min Rain = 0
KPD2 140623Z 14004KT 28/18 A2997 RMK A01 T02770178  RH  055%=      5-min Rain = 0
KPD2 140624Z 13006KT 28/18 A2997 RMK A01 T02770179  RH  055%=      5-min Rain = 0
KPD2 140625Z 14004KT 28/18 A2997 RMK A01 T02770179  RH  055%=      5-min Rain = 0
KPD2 140626Z 14005KT 28/18 A2997 RMK A01 T02770179  RH  055%=      5-min Rain = 0
KPD2 140627Z 14005KT 28/18 A2997 RMK A01 T02770180  RH  056%=      5-min Rain = 0
KPD2 140628Z 12005KT 28/18 A2997 RMK A01 T02770181  RH  056%=      5-min Rain = 0
KPD2 140629Z 10002KT 28/18 A2997 RMK A01 T02760180  RH  056%=      5-min Rain = 0
KPD2 140630Z 13002KT 28/18 A2997 RMK A01 T02760180  RH  056%=      5-min Rain = 0
KPD2 140631Z 15004KT 28/18 A2997 RMK A01 T02760181  RH  056%=      5-min Rain = 0
KPD2 140632Z 16003KT 28/18 A2997 RMK A01 T02760182  RH  056%=      5-min Rain = 0
KPD2 140633Z 15004KT 28/18 A2997 RMK A01 T02760182  RH  057%=      5-min Rain = 0
KPD2 140634Z 13004KT 28/18 A2997 RMK A01 T02750182  RH  057%=      5-min Rain = 0
KPD2 140635Z 12003KT 28/18 A2997 RMK A01 T02750181  RH  057%=      5-min Rain = 0
KPD2 140636Z 12002KT 27/18 A2997 RMK A01 T02740181  RH  057%=      5-min Rain = 0
KPD2 140637Z 12002KT 27/18 A2997 RMK A01 T02740181  RH  057%=      5-min Rain = 0
KPD2 140638Z 12003KT 27/18 A2997 RMK A01 T02740181  RH  057%=      5-min Rain = 0
KPD2 140639Z 12004KT 27/18 A2998 RMK A01 T02730181  RH  057%=      5-min Rain = 0
KPD2 140640Z 12005KT 27/18 A2998 RMK A01 T02720182  RH  058%=      5-min Rain = 0
KPD2 140641Z 11004KT 27/18 A2998 RMK A01 T02720182  RH  058%=      5-min Rain = 0
KPD2 140642Z 11003KT 27/18 A2998 RMK A01 T02720182  RH  058%=      5-min Rain = 0
KPD2 140643Z 11002KT 27/18 A2998 RMK A01 T02710182  RH  058%=      5-min Rain = 0
KPD2 140644Z 10003KT 27/18 A2998 RMK A01 T02710182  RH  058%=      5-min Rain = 0
KPD2 140645Z 12002KT 27/18 A2998 RMK A01 T02700182  RH  059%=      5-min Rain = 0
KPD2 140646Z 12001KT 27/18 A2998 RMK A01 T02700182  RH  059%=      5-min Rain = 0
KPD2 140647Z 11001KT 27/18 A2998 RMK A01 T02690182  RH  059%=      5-min Rain = 0
KPD2 140648Z 09003KT 27/18 A2998 RMK A01 T02690183  RH  059%=      5-min Rain = 0
KPD2 140649Z 08003KT 27/18 A2998 RMK A01 T02680183  RH  059%=      5-min Rain = 0
KPD2 140650Z 09001KT 27/18 A2998 RMK A01 T02680183  RH  060%=      5-min Rain = 0
KPD2 140651Z 08000KT 27/18 A2998 RMK A01 T02680183  RH  060%=      5-min Rain = 0
KPD2 140652Z 09000KT 27/18 A2998 RMK A01 T02670183  RH  060%=      5-min Rain = 0
KPD2 140653Z 09000KT 27/18 A2998 RMK A01 T02670183  RH  060%=      5-min Rain = 0
KPD2 140654Z 03000KT 27/18 A2998 RMK A01 T02670183  RH  060%=      5-min Rain = 0
KPD2 140655Z 00002KT 27/18 A2998 RMK A01 T02660184  RH  061%=      5-min Rain = 0
KPD2 140656Z 02003KT 27/19 A2998 RMK A01 T02660185  RH  061%=      5-min Rain = 0
KPD2 140657Z 04002KT 27/19 A2998 RMK A01 T02660186  RH  061%=      5-min Rain = 0
KPD2 140658Z 06001KT 27/19 A2998 RMK A01 T02670187  RH  062%=      5-min Rain = 0
KPD2 140659Z 00000KT 27/19 A2998 RMK A01 T02680188  RH  061%=      5-min Rain = 0
KPD2 140700Z 00000KT 27/19 A2998 RMK A01 T02680187  RH  061%=      5-min Rain = 0
KPD2 140701Z 00000KT 27/19 A2998 RMK A01 T02680187  RH  061%=      5-min Rain = 0
KPD2 140702Z 06000KT 27/19 A2998 RMK A01 T02680187  RH  061%=      5-min Rain = 0
KPD2 140703Z 09001KT 27/19 A2998 RMK A01 T02680189  RH  062%=      5-min Rain = 0
KPD2 140704Z 12002KT 27/19 A2998 RMK A01 T02690190  RH  062%=      5-min Rain = 0
KPD2 140705Z 13003KT 27/19 A2998 RMK A01 T02690188  RH  061%=      5-min Rain = 0
KPD2 140706Z 14002KT 27/19 A2998 RMK A01 T02680189  RH  062%=      5-min Rain = 0
KPD2 140707Z 15003KT 27/19 A2998 RMK A01 T02680187  RH  061%=      5-min Rain = 0
KPD2 140708Z 16002KT 27/19 A2998 RMK A01 T02670187  RH  062%=      5-min Rain = 0
KPD2 140709Z 19003KT 27/19 A2998 RMK A01 T02660185  RH  061%=      5-min Rain = 0
KPD2 140710Z 22003KT 27/18 A2998 RMK A01 T02650184  RH  061%=      5-min Rain = 0
KPD2 140711Z 21001KT 26/18 A2998 RMK A01 T02640184  RH  061%=      5-min Rain = 0
KPD2 140712Z 20001KT 26/18 A2998 RMK A01 T02630184  RH  062%=      5-min Rain = 0
KPD2 140713Z 20004KT 26/18 A2998 RMK A01 T02620183  RH  062%=      5-min Rain = 0
KPD2 140714Z 20003KT 26/18 A2998 RMK A01 T02610182  RH  062%=      5-min Rain = 0
KPD2 140715Z 20001KT 26/18 A2998 RMK A01 T02610182  RH  062%=      5-min Rain = 0
KPD2 140716Z 20000KT 26/18 A2998 RMK A01 T02600182  RH  062%=      5-min Rain = 0
KPD2 140717Z 00000KT 26/18 A2998 RMK A01 T02590182  RH  063%=      5-min Rain = 0
KPD2 140718Z 00000KT 26/18 A2998 RMK A01 T02580182  RH  063%=      5-min Rain = 0
KPD2 140719Z 00000KT 26/18 A2998 RMK A01 T02570182  RH  063%=      5-min Rain = 0
KPD2 140720Z 05001KT 26/18 A2998 RMK A01 T02560181  RH  063%=      5-min Rain = 0
KPD2 140721Z 01003KT 26/18 A2998 RMK A01 T02550182  RH  064%=      5-min Rain = 0
KPD2 140722Z 01003KT 26/18 A2998 RMK A01 T02550181  RH  064%=      5-min Rain = 0
KPD2 140723Z 02003KT 25/18 A2998 RMK A01 T02540181  RH  064%=      5-min Rain = 0
KPD2 140724Z 01002KT 25/18 A2998 RMK A01 T02530182  RH  065%=      5-min Rain = 0
KPD2 140725Z 35002KT 25/18 A2998 RMK A01 T02530182  RH  065%=      5-min Rain = 0
KPD2 140726Z 35002KT 25/18 A2998 RMK A01 T02530182  RH  065%=      5-min Rain = 0
KPD2 140727Z 35001KT 25/18 A2998 RMK A01 T02520182  RH  065%=      5-min Rain = 0
KPD2 140728Z 35001KT 25/18 A2997 RMK A01 T02530183  RH  065%=      5-min Rain = 0
KPD2 140729Z 35000KT 25/18 A2997 RMK A01 T02530183  RH  065%=      5-min Rain = 0
KPD2 140730Z 25002KT 25/18 A2997 RMK A01 T02520182  RH  065%=      5-min Rain = 0
KPD2 140731Z 26002KT 25/18 A2997 RMK A01 T02530183  RH  065%=      5-min Rain = 0
KPD2 140732Z 26002KT 25/18 A2997 RMK A01 T02530183  RH  065%=      5-min Rain = 0
KPD2 140733Z 26002KT 25/18 A2997 RMK A01 T02530182  RH  065%=      5-min Rain = 0
KPD2 140734Z 25002KT 25/18 A2997 RMK A01 T02530182  RH  065%=      5-min Rain = 0
KPD2 140735Z 25002KT 25/18 A2997 RMK A01 T02520181  RH  065%=      5-min Rain = 0
KPD2 140736Z 25003KT 25/18 A2997 RMK A01 T02510181  RH  065%=      5-min Rain = 0
KPD2 140737Z 25003KT 25/18 A2997 RMK A01 T02500181  RH  065%=      5-min Rain = 0
KPD2 140738Z 26003KT 25/18 A2997 RMK A01 T02500182  RH  066%=      5-min Rain = 0
KPD2 140739Z 26003KT 25/18 A2997 RMK A01 T02490181  RH  066%=      5-min Rain = 0
KPD2 140740Z 27002KT 25/18 A2997 RMK A01 T02480182  RH  066%=      5-min Rain = 0
KPD2 140741Z 29002KT 25/18 A2997 RMK A01 T02480182  RH  067%=      5-min Rain = 0
KPD2 140742Z 30002KT 25/18 A2997 RMK A01 T02480182  RH  067%=      5-min Rain = 0
KPD2 140743Z 30000KT 25/18 A2997 RMK A01 T02470183  RH  067%=      5-min Rain = 0
KPD2 140744Z 02001KT 25/18 A2997 RMK A01 T02470183  RH  068%=      5-min Rain = 0
KPD2 140745Z 02001KT 25/18 A2997 RMK A01 T02470184  RH  068%=      5-min Rain = 0
KPD2 140746Z 02000KT 25/19 A2997 RMK A01 T02480185  RH  068%=      5-min Rain = 0
KPD2 140747Z 00000KT 25/19 A2997 RMK A01 T02490185  RH  068%=      5-min Rain = 0
KPD2 140748Z 24001KT 25/19 A2997 RMK A01 T02500186  RH  067%=      5-min Rain = 0
KPD2 140749Z 25003KT 25/19 A2997 RMK A01 T02510186  RH  067%=      5-min Rain = 0
KPD2 140750Z 26003KT 25/19 A2997 RMK A01 T02520186  RH  067%=      5-min Rain = 0
KPD2 140751Z 26002KT 25/19 A2997 RMK A01 T02520186  RH  067%=      5-min Rain = 0
KPD2 140752Z 25002KT 25/19 A2997 RMK A01 T02520187  RH  067%=      5-min Rain = 0
KPD2 140753Z 27001KT 25/19 A2997 RMK A01 T02520187  RH  067%=      5-min Rain = 0
KPD2 140754Z 30001KT 25/19 A2997 RMK A01 T02510187  RH  067%=      5-min Rain = 0
KPD2 140755Z 32002KT 25/19 A2997 RMK A01 T02510187  RH  068%=      5-min Rain = 0
KPD2 140756Z 34002KT 25/19 A2997 RMK A01 T02490186  RH  068%=      5-min Rain = 0
KPD2 140757Z 31002KT 25/19 A2997 RMK A01 T02490187  RH  068%=      5-min Rain = 0
KPD2 140758Z 30003KT 25/19 A2997 RMK A01 T02490186  RH  068%=      5-min Rain = 0
KPD2 140759Z 31002KT 25/19 A2997 RMK A01 T02480185  RH  068%=      5-min Rain = 0
KPD2 140800Z 29002KT 25/19 A2997 RMK A01 T02480185  RH  068%=      5-min Rain = 0
KPD2 140801Z 29001KT 25/19 A2997 RMK A01 T02470185  RH  068%=      5-min Rain = 0
KPD2 140802Z 29000KT 25/19 A2997 RMK A01 T02470185  RH  068%=      5-min Rain = 0
KPD2 140803Z 00000KT 25/19 A2997 RMK A01 T02460185  RH  069%=      5-min Rain = 0
KPD2 140804Z 00000KT 25/19 A2997 RMK A01 T02450185  RH  069%=      5-min Rain = 0
KPD2 140805Z 29000KT 25/19 A2997 RMK A01 T02450185  RH  070%=      5-min Rain = 0
KPD2 140806Z 29001KT 25/19 A2997 RMK A01 T02450186  RH  070%=      5-min Rain = 0
KPD2 140807Z 29002KT 25/19 A2997 RMK A01 T02450185  RH  069%=      5-min Rain = 0
KPD2 140808Z 29001KT 25/19 A2997 RMK A01 T02450185  RH  069%=      5-min Rain = 0
KPD2 140809Z 29001KT 25/19 A2997 RMK A01 T02450185  RH  069%=      5-min Rain = 0
KPD2 140810Z 32000KT 25/19 A2997 RMK A01 T02450185  RH  069%=      5-min Rain = 0
KPD2 140811Z 33002KT 24/19 A2997 RMK A01 T02440185  RH  070%=      5-min Rain = 0
KPD2 140812Z 30003KT 24/19 A2997 RMK A01 T02430187  RH  071%=      5-min Rain = 0
KPD2 140813Z 30002KT 24/19 A2997 RMK A01 T02430186  RH  071%=      5-min Rain = 0
KPD2 140814Z 30002KT 24/19 A2997 RMK A01 T02430186  RH  070%=      5-min Rain = 0
KPD2 140815Z 30001KT 24/19 A2997 RMK A01 T02440186  RH  070%=      5-min Rain = 0
KPD2 140816Z 31000KT 24/19 A2997 RMK A01 T02430186  RH  070%=      5-min Rain = 0
KPD2 140817Z 00000KT 24/19 A2996 RMK A01 T02430186  RH  071%=      5-min Rain = 0
KPD2 140818Z 30000KT 24/19 A2996 RMK A01 T02430187  RH  071%=      5-min Rain = 0
KPD2 140819Z 30001KT 24/19 A2996 RMK A01 T02430186  RH  071%=      5-min Rain = 0
KPD2 140820Z 29002KT 24/19 A2996 RMK A01 T02430186  RH  071%=      5-min Rain = 0
KPD2 140821Z 27002KT 24/19 A2996 RMK A01 T02430186  RH  070%=      5-min Rain = 0
KPD2 140822Z 27002KT 24/19 A2996 RMK A01 T02430185  RH  070%=      5-min Rain = 0
KPD2 140823Z 26001KT 24/19 A2996 RMK A01 T02430185  RH  070%=      5-min Rain = 0
KPD2 140824Z 27000KT 24/19 A2996 RMK A01 T02420185  RH  070%=      5-min Rain = 0
KPD2 140825Z 32001KT 24/19 A2996 RMK A01 T02410185  RH  071%=      5-min Rain = 0
KPD2 140826Z 32001KT 24/19 A2996 RMK A01 T02400185  RH  071%=      5-min Rain = 0
KPD2 140827Z 32000KT 24/19 A2996 RMK A01 T02400185  RH  072%=      5-min Rain = 0
KPD2 140828Z 30002KT 24/19 A2996 RMK A01 T02390185  RH  072%=      5-min Rain = 0
KPD2 140829Z 30002KT 24/19 A2996 RMK A01 T02390185  RH  072%=      5-min Rain = 0
KPD2 140830Z 29001KT 24/18 A2996 RMK A01 T02380184  RH  072%=      5-min Rain = 0
KPD2 140831Z 29001KT 24/19 A2996 RMK A01 T02380185  RH  072%=      5-min Rain = 0
KPD2 140832Z 30000KT 24/19 A2996 RMK A01 T02380185  RH  072%=      5-min Rain = 0
KPD2 140833Z 30001KT 24/19 A2996 RMK A01 T02380185  RH  073%=      5-min Rain = 0
KPD2 140834Z 29001KT 24/19 A2996 RMK A01 T02370185  RH  073%=      5-min Rain = 0
KPD2 140835Z 29001KT 24/19 A2996 RMK A01 T02370185  RH  073%=      5-min Rain = 0
KPD2 140836Z 29001KT 24/19 A2996 RMK A01 T02370185  RH  073%=      5-min Rain = 0
KPD2 140837Z 29002KT 24/19 A2996 RMK A01 T02370185  RH  073%=      5-min Rain = 0
KPD2 140838Z 29001KT 24/19 A2996 RMK A01 T02360185  RH  073%=      5-min Rain = 0
KPD2 140839Z 29001KT 24/19 A2996 RMK A01 T02360185  RH  073%=      5-min Rain = 0
KPD2 140840Z 29001KT 24/19 A2996 RMK A01 T02350185  RH  073%=      5-min Rain = 0
KPD2 140841Z 29001KT 23/19 A2996 RMK A01 T02340185  RH  074%=      5-min Rain = 0
KPD2 140842Z 30001KT 23/19 A2996 RMK A01 T02330185  RH  074%=      5-min Rain = 0
KPD2 140843Z 31002KT 23/19 A2996 RMK A01 T02330185  RH  074%=      5-min Rain = 0
KPD2 140844Z 32002KT 23/19 A2996 RMK A01 T02320185  RH  075%=      5-min Rain = 0
KPD2 140845Z 33002KT 23/19 A2996 RMK A01 T02320185  RH  075%=      5-min Rain = 0
KPD2 140846Z 31002KT 23/19 A2996 RMK A01 T02310185  RH  075%=      5-min Rain = 0
KPD2 140847Z 30002KT 23/19 A2996 RMK A01 T02310185  RH  075%=      5-min Rain = 0
KPD2 140848Z 30003KT 23/19 A2996 RMK A01 T02310185  RH  075%=      5-min Rain = 0
KPD2 140849Z 30003KT 23/19 A2996 RMK A01 T02310185  RH  075%=      5-min Rain = 0
KPD2 140850Z 28004KT 23/19 A2996 RMK A01 T02310186  RH  076%=      5-min Rain = 0
KPD2 140851Z 28003KT 23/19 A2996 RMK A01 T02320188  RH  076%=      5-min Rain = 0
KPD2 140852Z 27003KT 23/19 A2996 RMK A01 T02330188  RH  076%=      5-min Rain = 0
KPD2 140853Z 29003KT 23/19 A2996 RMK A01 T02340188  RH  075%=      5-min Rain = 0
KPD2 140854Z 28003KT 24/19 A2996 RMK A01 T02350188  RH  075%=      5-min Rain = 0
KPD2 140855Z 30004KT 24/19 A2996 RMK A01 T02350188  RH  075%=      5-min Rain = 0
KPD2 140856Z 30003KT 24/19 A2996 RMK A01 T02350188  RH  075%=      5-min Rain = 0
KPD2 140857Z 30002KT 24/19 A2996 RMK A01 T02350188  RH  075%=      5-min Rain = 0
KPD2 140858Z 30002KT 24/19 A2996 RMK A01 T02350188  RH  075%=      5-min Rain = 0
KPD2 140859Z 30001KT 23/19 A2996 RMK A01 T02340188  RH  075%=      5-min Rain = 0
KPD2 140900Z 30001KT 23/19 A2996 RMK A01 T02340187  RH  075%=      5-min Rain = 0
KPD2 140901Z 29002KT 23/19 A2996 RMK A01 T02330188  RH  076%=      5-min Rain = 0
KPD2 140902Z 30002KT 23/19 A2996 RMK A01 T02320186  RH  075%=      5-min Rain = 0
KPD2 140903Z 31002KT 23/19 A2996 RMK A01 T02320187  RH  076%=      5-min Rain = 0
KPD2 140904Z 32002KT 23/19 A2996 RMK A01 T02320187  RH  076%=      5-min Rain = 0
KPD2 140905Z 32002KT 23/19 A2996 RMK A01 T02320187  RH  076%=      5-min Rain = 0
KPD2 140906Z 30001KT 23/19 A2996 RMK A01 T02310187  RH  076%=      5-min Rain = 0
KPD2 140907Z 32001KT 23/19 A2996 RMK A01 T02310187  RH  076%=      5-min Rain = 0
KPD2 140908Z 34001KT 23/19 A2996 RMK A01 T02310187  RH  076%=      5-min Rain = 0
KPD2 140909Z 33002KT 23/19 A2996 RMK A01 T02310188  RH  077%=      5-min Rain = 0
KPD2 140910Z 35002KT 23/19 A2996 RMK A01 T02310188  RH  077%=      5-min Rain = 0
KPD2 140911Z 35002KT 23/19 A2996 RMK A01 T02310188  RH  077%=      5-min Rain = 0
KPD2 140912Z 34001KT 23/19 A2996 RMK A01 T02310188  RH  077%=      5-min Rain = 0
KPD2 140913Z 34000KT 23/19 A2996 RMK A01 T02310188  RH  077%=      5-min Rain = 0
KPD2 140914Z 34000KT 23/19 A2996 RMK A01 T02310188  RH  077%=      5-min Rain = 0
KPD2 140915Z 34001KT 23/19 A2996 RMK A01 T02310189  RH  077%=      5-min Rain = 0
KPD2 140916Z 34001KT 23/19 A2996 RMK A01 T02310189  RH  077%=      5-min Rain = 0
KPD2 140917Z 34002KT 23/19 A2996 RMK A01 T02310189  RH  077%=      5-min Rain = 0
KPD2 140918Z 33001KT 23/19 A2996 RMK A01 T02310189  RH  077%=      5-min Rain = 0
KPD2 140919Z 00000KT 23/19 A2996 RMK A01 T02320189  RH  077%=      5-min Rain = 0
KPD2 140920Z 00000KT 23/19 A2996 RMK A01 T02320189  RH  077%=      5-min Rain = 0
KPD2 140921Z 31001KT 23/19 A2996 RMK A01 T02310188  RH  077%=      5-min Rain = 0
KPD2 140922Z 29002KT 23/19 A2996 RMK A01 T02320188  RH  077%=      5-min Rain = 0
KPD2 140923Z 30002KT 23/19 A2996 RMK A01 T02310189  RH  077%=      5-min Rain = 0
KPD2 140924Z 30001KT 23/19 A2996 RMK A01 T02310189  RH  077%=      5-min Rain = 0
KPD2 140925Z 30001KT 23/19 A2996 RMK A01 T02300188  RH  077%=      5-min Rain = 0
KPD2 140926Z 30001KT 23/19 A2996 RMK A01 T02300188  RH  077%=      5-min Rain = 0
KPD2 140927Z 30001KT 23/19 A2996 RMK A01 T02310189  RH  077%=      5-min Rain = 0
KPD2 140928Z 30001KT 23/19 A2996 RMK A01 T02310188  RH  077%=      5-min Rain = 0
KPD2 140929Z 30001KT 23/19 A2996 RMK A01 T02300188  RH  077%=      5-min Rain = 0
KPD2 140930Z 32001KT 23/19 A2996 RMK A01 T02300188  RH  077%=      5-min Rain = 0
KPD2 140931Z 32001KT 23/19 A2996 RMK A01 T02300188  RH  077%=      5-min Rain = 0
KPD2 140932Z 32002KT 23/19 A2996 RMK A01 T02290188  RH  077%=      5-min Rain = 0
KPD2 140933Z 32002KT 23/19 A2996 RMK A01 T02300189  RH  078%=      5-min Rain = 0
KPD2 140934Z 33002KT 23/19 A2996 RMK A01 T02290188  RH  078%=      5-min Rain = 0
KPD2 140935Z 34002KT 23/19 A2996 RMK A01 T02290188  RH  078%=      5-min Rain = 0
KPD2 140936Z 34002KT 23/19 A2996 RMK A01 T02290188  RH  078%=      5-min Rain = 0
KPD2 140937Z 33002KT 23/19 A2996 RMK A01 T02280187  RH  078%=      5-min Rain = 0
KPD2 140938Z 33002KT 23/19 A2996 RMK A01 T02280188  RH  078%=      5-min Rain = 0
KPD2 140939Z 33002KT 23/19 A2996 RMK A01 T02280187  RH  078%=      5-min Rain = 0
KPD2 140940Z 32001KT 23/19 A2996 RMK A01 T02270187  RH  078%=      5-min Rain = 0
KPD2 140941Z 31002KT 23/19 A2996 RMK A01 T02280188  RH  078%=      5-min Rain = 0
KPD2 140942Z 30001KT 23/19 A2996 RMK A01 T02280188  RH  078%=      5-min Rain = 0
KPD2 140943Z 30001KT 23/19 A2996 RMK A01 T02270188  RH  078%=      5-min Rain = 0
KPD2 140944Z 30001KT 23/19 A2996 RMK A01 T02270188  RH  079%=      5-min Rain = 0
KPD2 140945Z 30001KT 23/19 A2996 RMK A01 T02270189  RH  079%=      5-min Rain = 0
KPD2 140946Z 30000KT 23/19 A2996 RMK A01 T02270188  RH  079%=      5-min Rain = 0
KPD2 140947Z 30001KT 23/19 A2996 RMK A01 T02260188  RH  079%=      5-min Rain = 0
KPD2 140948Z 00000KT 23/19 A2996 RMK A01 T02260188  RH  079%=      5-min Rain = 0
KPD2 140949Z 00000KT 23/19 A2996 RMK A01 T02250188  RH  079%=      5-min Rain = 0
KPD2 140950Z 30000KT 23/19 A2996 RMK A01 T02260188  RH  079%=      5-min Rain = 0
KPD2 140951Z 30000KT 23/19 A2996 RMK A01 T02250188  RH  079%=      5-min Rain = 0
KPD2 140952Z 21001KT 23/19 A2996 RMK A01 T02260188  RH  079%=      5-min Rain = 0
KPD2 140953Z 20001KT 23/19 A2996 RMK A01 T02270188  RH  079%=      5-min Rain = 0
KPD2 140954Z 21001KT 23/19 A2996 RMK A01 T02270188  RH  078%=      5-min Rain = 0
KPD2 140955Z 20001KT 23/19 A2996 RMK A01 T02270187  RH  078%=      5-min Rain = 0
KPD2 140956Z 21001KT 23/19 A2996 RMK A01 T02270187  RH  078%=      5-min Rain = 0
KPD2 140957Z 22000KT 23/19 A2996 RMK A01 T02270187  RH  078%=      5-min Rain = 0
KPD2 140958Z 22000KT 23/19 A2996 RMK A01 T02270187  RH  078%=      5-min Rain = 0
KPD2 140959Z 23000KT 23/19 A2996 RMK A01 T02270188  RH  079%=      5-min Rain = 0
KPD2 141000Z 28000KT 23/19 A2996 RMK A01 T02260187  RH  079%=      5-min Rain = 0
KPD2 141001Z 28000KT 23/19 A2996 RMK A01 T02260188  RH  079%=      5-min Rain = 0
KPD2 141002Z 28001KT 23/19 A2996 RMK A01 T02260188  RH  079%=      5-min Rain = 0
KPD2 141003Z 28001KT 23/19 A2996 RMK A01 T02260187  RH  079%=      5-min Rain = 0
KPD2 141004Z 32001KT 23/19 A2996 RMK A01 T02250187  RH  079%=      5-min Rain = 0
KPD2 141005Z 33001KT 23/19 A2996 RMK A01 T02250187  RH  079%=      5-min Rain = 0
KPD2 141006Z 31002KT 22/19 A2996 RMK A01 T02240187  RH  079%=      5-min Rain = 0
KPD2 141007Z 31001KT 22/19 A2996 RMK A01 T02240187  RH  079%=      5-min Rain = 0
KPD2 141008Z 31002KT 22/19 A2996 RMK A01 T02230187  RH  080%=      5-min Rain = 0
KPD2 141009Z 32002KT 22/19 A2996 RMK A01 T02230187  RH  080%=      5-min Rain = 0
KPD2 141010Z 33003KT 22/19 A2996 RMK A01 T02230187  RH  080%=      5-min Rain = 0
KPD2 141011Z 33002KT 22/19 A2996 RMK A01 T02220187  RH  080%=      5-min Rain = 0
KPD2 141012Z 34002KT 22/19 A2996 RMK A01 T02220186  RH  080%=      5-min Rain = 0
KPD2 141013Z 33002KT 22/19 A2996 RMK A01 T02220186  RH  080%=      5-min Rain = 0
KPD2 141014Z 32002KT 22/19 A2996 RMK A01 T02210187  RH  081%=      5-min Rain = 0
KPD2 141015Z 30002KT 22/19 A2996 RMK A01 T02210187  RH  081%=      5-min Rain = 0
KPD2 141016Z 30002KT 22/19 A2996 RMK A01 T02200188  RH  082%=      5-min Rain = 0
KPD2 141017Z 30002KT 22/19 A2996 RMK A01 T02210189  RH  082%=      5-min Rain = 0
KPD2 141018Z 30002KT 22/19 A2996 RMK A01 T02210189  RH  082%=      5-min Rain = 0
KPD2 141019Z 30003KT 22/19 A2996 RMK A01 T02210189  RH  082%=      5-min Rain = 0
KPD2 141020Z 30004KT 22/19 A2996 RMK A01 T02220189  RH  081%=      5-min Rain = 0
KPD2 141021Z 31004KT 22/19 A2996 RMK A01 T02230189  RH  081%=      5-min Rain = 0
KPD2 141022Z 31003KT 22/19 A2996 RMK A01 T02240188  RH  080%=      5-min Rain = 0
KPD2 141023Z 32003KT 22/19 A2996 RMK A01 T02240188  RH  080%=      5-min Rain = 0
KPD2 141024Z 32002KT 22/19 A2996 RMK A01 T02240188  RH  080%=      5-min Rain = 0
KPD2 141025Z 32002KT 22/19 A2996 RMK A01 T02230187  RH  080%=      5-min Rain = 0
KPD2 141026Z 33003KT 22/19 A2996 RMK A01 T02220187  RH  080%=      5-min Rain = 0
KPD2 141027Z 32003KT 22/19 A2996 RMK A01 T02220186  RH  080%=      5-min Rain = 0
KPD2 141028Z 32002KT 22/19 A2996 RMK A01 T02210186  RH  081%=      5-min Rain = 0
KPD2 141029Z 32002KT 22/19 A2996 RMK A01 T02210186  RH  081%=      5-min Rain = 0
KPD2 141030Z 32003KT 22/19 A2996 RMK A01 T02200186  RH  081%=      5-min Rain = 0
KPD2 141031Z 33002KT 22/19 A2996 RMK A01 T02200186  RH  081%=      5-min Rain = 0
KPD2 141032Z 31002KT 22/19 A2996 RMK A01 T02200186  RH  081%=      5-min Rain = 0
KPD2 141033Z 32002KT 22/19 A2996 RMK A01 T02200186  RH  081%=      5-min Rain = 0
KPD2 141034Z 32001KT 22/19 A2996 RMK A01 T02190187  RH  082%=      5-min Rain = 0
KPD2 141035Z 33001KT 22/19 A2996 RMK A01 T02200187  RH  082%=      5-min Rain = 0
KPD2 141036Z 31002KT 22/19 A2996 RMK A01 T02200187  RH  082%=      5-min Rain = 0
KPD2 141037Z 32002KT 22/19 A2996 RMK A01 T02200187  RH  082%=      5-min Rain = 0
KPD2 141038Z 33002KT 22/19 A2996 RMK A01 T02200187  RH  082%=      5-min Rain = 0
KPD2 141039Z 33002KT 22/19 A2996 RMK A01 T02200188  RH  082%=      5-min Rain = 0
KPD2 141040Z 32002KT 22/19 A2996 RMK A01 T02200187  RH  082%=      5-min Rain = 0
KPD2 141041Z 33001KT 22/19 A2996 RMK A01 T02200188  RH  082%=      5-min Rain = 0
KPD2 141042Z 33002KT 22/19 A2996 RMK A01 T02200188  RH  082%=      5-min Rain = 0
KPD2 141043Z 33002KT 22/19 A2996 RMK A01 T02200188  RH  082%=      5-min Rain = 0
KPD2 141044Z 33003KT 22/19 A2996 RMK A01 T02200188  RH  082%=      5-min Rain = 0
KPD2 141045Z 33002KT 22/19 A2996 RMK A01 T02200188  RH  082%=      5-min Rain = 0
KPD2 141046Z 32002KT 22/19 A2996 RMK A01 T02200187  RH  082%=      5-min Rain = 0
KPD2 141047Z 32002KT 22/19 A2996 RMK A01 T02200188  RH  082%=      5-min Rain = 0
KPD2 141048Z 32001KT 22/19 A2996 RMK A01 T02190187  RH  082%=      5-min Rain = 0
KPD2 141049Z 32001KT 22/19 A2996 RMK A01 T02190188  RH  082%=      5-min Rain = 0
KPD2 141050Z 23001KT 22/19 A2996 RMK A01 T02190187  RH  082%=      5-min Rain = 0
KPD2 141051Z 23002KT 22/19 A2996 RMK A01 T02190187  RH  082%=      5-min Rain = 0
KPD2 141052Z 23002KT 22/19 A2996 RMK A01 T02180186  RH  082%=      5-min Rain = 0
KPD2 141053Z 23001KT 22/19 A2996 RMK A01 T02180186  RH  082%=      5-min Rain = 0
KPD2 141054Z 23001KT 22/19 A2996 RMK A01 T02170185  RH  082%=      5-min Rain = 0
KPD2 141055Z 23000KT 22/19 A2996 RMK A01 T02170185  RH  082%=      5-min Rain = 0
KPD2 141056Z 23000KT 22/19 A2996 RMK A01 T02170185  RH  082%=      5-min Rain = 0
KPD2 141057Z 00000KT 22/19 A2996 RMK A01 T02160185  RH  082%=      5-min Rain = 0
KPD2 141058Z 00000KT 22/19 A2996 RMK A01 T02160185  RH  082%=      5-min Rain = 0
KPD2 141059Z 00000KT 22/19 A2996 RMK A01 T02150185  RH  083%=      5-min Rain = 0
KPD2 141100Z 23000KT 22/19 A2996 RMK A01 T02150185  RH  083%=      5-min Rain = 0
KPD2 141101Z 24000KT 21/18 A2996 RMK A01 T02140184  RH  083%=      5-min Rain = 0
KPD2 141102Z 28000KT 21/19 A2996 RMK A01 T02140185  RH  083%=      5-min Rain = 0
KPD2 141103Z 28000KT 21/19 A2996 RMK A01 T02140186  RH  084%=      5-min Rain = 0
KPD2 141104Z 28001KT 21/19 A2996 RMK A01 T02140186  RH  084%=      5-min Rain = 0
KPD2 141105Z 28001KT 21/19 A2996 RMK A01 T02140186  RH  084%=      5-min Rain = 0
KPD2 141106Z 28002KT 21/19 A2996 RMK A01 T02140186  RH  084%=      5-min Rain = 0
KPD2 141107Z 28002KT 21/19 A2996 RMK A01 T02140186  RH  084%=      5-min Rain = 0
KPD2 141108Z 28002KT 21/19 A2996 RMK A01 T02140185  RH  084%=      5-min Rain = 0
KPD2 141109Z 28001KT 21/19 A2996 RMK A01 T02140186  RH  084%=      5-min Rain = 0
KPD2 141110Z 28001KT 21/19 A2996 RMK A01 T02140186  RH  084%=      5-min Rain = 0
KPD2 141111Z 28001KT 21/19 A2996 RMK A01 T02140186  RH  084%=      5-min Rain = 0
KPD2 141112Z 28001KT 21/19 A2996 RMK A01 T02140186  RH  084%=      5-min Rain = 0
KPD2 141113Z 28001KT 21/19 A2996 RMK A01 T02140185  RH  084%=      5-min Rain = 0
KPD2 141114Z 28001KT 21/19 A2996 RMK A01 T02130186  RH  084%=      5-min Rain = 0
KPD2 141115Z 28001KT 21/19 A2996 RMK A01 T02130186  RH  084%=      5-min Rain = 0
KPD2 141116Z 28001KT 21/19 A2996 RMK A01 T02130186  RH  084%=      5-min Rain = 0
KPD2 141117Z 27001KT 21/19 A2996 RMK A01 T02130186  RH  085%=      5-min Rain = 0
KPD2 141118Z 28001KT 21/19 A2996 RMK A01 T02120186  RH  085%=      5-min Rain = 0
KPD2 141119Z 28001KT 21/19 A2996 RMK A01 T02120186  RH  085%=      5-min Rain = 0
KPD2 141120Z 28001KT 21/19 A2996 RMK A01 T02120186  RH  085%=      5-min Rain = 0
KPD2 141121Z 28001KT 21/19 A2996 RMK A01 T02110185  RH  085%=      5-min Rain = 0
KPD2 141122Z 28001KT 21/19 A2996 RMK A01 T02110185  RH  085%=      5-min Rain = 0
KPD2 141123Z 28001KT 21/18 A2996 RMK A01 T02100184  RH  085%=      5-min Rain = 0
KPD2 141124Z 28001KT 21/18 A2996 RMK A01 T02100184  RH  085%=      5-min Rain = 0
KPD2 141125Z 31002KT 21/18 A2996 RMK A01 T02090184  RH  085%=      5-min Rain = 0
KPD2 141126Z 32003KT 21/18 A2996 RMK A01 T02090184  RH  086%=      5-min Rain = 0
KPD2 141127Z 32004KT 21/19 A2996 RMK A01 T02090185  RH  086%=      5-min Rain = 0
KPD2 141128Z 32003KT 21/18 A2996 RMK A01 T02080184  RH  086%=      5-min Rain = 0
KPD2 141129Z 32003KT 21/18 A2996 RMK A01 T02090184  RH  086%=      5-min Rain = 0
KPD2 141130Z 31004KT 21/18 A2997 RMK A01 T02090183  RH  086%=      5-min Rain = 0
KPD2 141131Z 31005KT 21/18 A2997 RMK A01 T02080182  RH  085%=      5-min Rain = 0
KPD2 141132Z 32005KT 21/18 A2997 RMK A01 T02080183  RH  086%=      5-min Rain = 0
KPD2 141133Z 32006KT 21/18 A2997 RMK A01 T02080183  RH  086%=      5-min Rain = 0
KPD2 141134Z 33006KT 21/19 A2997 RMK A01 T02080185  RH  086%=      5-min Rain = 0
KPD2 141135Z 32006KT 21/19 A2998 RMK A01 T02080185  RH  087%=      5-min Rain = 0
KPD2 141136Z 32007KT 21/19 A2998 RMK A01 T02080185  RH  087%=      5-min Rain = 0
KPD2 141137Z 32010KT 21/19 A2998 RMK A01 T02090186  RH  087%=      5-min Rain = 0
KPD2 141138Z 31010KT 21/19 A2998 RMK A01 T02100188  RH  087%=      5-min Rain = 0
KPD2 141139Z 32009KT 21/19 A2998 RMK A01 T02120190  RH  087%=      5-min Rain = 0
KPD2 141140Z 33008KT 22/19 A2998 RMK A01 T02150194  RH  088%=      5-min Rain = 0
KPD2 141141Z 34005KT 22/20 A2998 RMK A01 T02180196  RH  087%=      5-min Rain = 0
KPD2 141142Z 35005KT 22/20 A2997 RMK A01 T02190196  RH  087%=      5-min Rain = 0
KPD2 141143Z 34004KT 22/20 A2997 RMK A01 T02190196  RH  087%=      5-min Rain = 0
KPD2 141144Z 32005KT 22/20 A2998 RMK A01 T02210196  RH  086%=      5-min Rain = 0
KPD2 141145Z 31007KT 22/20 A2998 RMK A01 T02220197  RH  086%=      5-min Rain = 0
KPD2 141146Z 31006KT 22/20 A2999 RMK A01 T02230197  RH  085%=      5-min Rain = 0
KPD2 141147Z 31006KT 22/20 A2999 RMK A01 T02240196  RH  084%=      5-min Rain = 0
KPD2 141148Z 32005KT 22/20 A2999 RMK A01 T02240195  RH  084%=      5-min Rain = 0
KPD2 141149Z 33004KT 22/19 A2999 RMK A01 T02230194  RH  084%=      5-min Rain = 0
KPD2 141150Z 31005KT 22/19 A2998 RMK A01 T02230193  RH  083%=      5-min Rain = 0
KPD2 141151Z 30002KT 22/19 A2998 RMK A01 T02230193  RH  083%=      5-min Rain = 0
KPD2 141152Z 31001KT 22/19 A2998 RMK A01 T02230192  RH  083%=      5-min Rain = 0
KPD2 141153Z 29003KT 22/19 A2998 RMK A01 T02220192  RH  083%=      5-min Rain = 0
KPD2 141154Z 28004KT 22/19 A2998 RMK A01 T02220191  RH  083%=      5-min Rain = 0
KPD2 141155Z 28005KT 22/19 A2999 RMK A01 T02220191  RH  083%=      5-min Rain = 0
KPD2 141156Z 28005KT 22/19 A2999 RMK A01 T02210190  RH  083%=      5-min Rain = 0
KPD2 141157Z 29004KT 22/19 A2999 RMK A01 T02210190  RH  083%=      5-min Rain = 0
KPD2 141158Z 32005KT 22/19 A2999 RMK A01 T02210190  RH  083%=      5-min Rain = 0
KPD2 141159Z 34004KT 22/19 A2999 RMK A01 T02200189  RH  083%=      5-min Rain = 0
KPD2 141200Z 36005KT 22/19 A2999 RMK A01 T02190189  RH  083%=      5-min Rain = 0
KPD2 141201Z 36004KT 22/19 A2999 RMK A01 T02190190  RH  084%=      5-min Rain = 0
KPD2 141202Z 00004KT 22/19 A2998 RMK A01 T02190190  RH  084%=      5-min Rain = 0
KPD2 141203Z 35003KT 22/19 A2998 RMK A01 T02180191  RH  084%=      5-min Rain = 0
KPD2 141204Z 32002KT 22/19 A2998 RMK A01 T02180191  RH  084%=      5-min Rain = 0
KPD2 141205Z 28002KT 22/19 A2998 RMK A01 T02190191  RH  085%=      5-min Rain = 0
KPD2 141206Z 25003KT 22/19 A2999 RMK A01 T02190192  RH  084%=      5-min Rain = 0
KPD2 141207Z 26004KT 22/19 A2999 RMK A01 T02190191  RH  084%=      5-min Rain = 0
KPD2 141208Z 28003KT 22/19 A30 RMK A01 T02200192  RH  084%=      5-min Rain = 0
KPD2 141209Z 29003KT 22/19 A30 RMK A01 T02200192  RH  084%=      5-min Rain = 0
KPD2 141210Z 32002KT 22/19 A30 RMK A01 T02200191  RH  084%=      5-min Rain = 0
KPD2 141211Z 01003KT 22/19 A30 RMK A01 T02200191  RH  084%=      5-min Rain = 0
KPD2 141212Z 02003KT 22/19 A2999 RMK A01 T02200191  RH  084%=      5-min Rain = 0
KPD2 141213Z 01003KT 22/19 A2999 RMK A01 T02190191  RH  084%=      5-min Rain = 0
KPD2 141214Z 01003KT 22/19 A2999 RMK A01 T02190191  RH  084%=      5-min Rain = 0
KPD2 141215Z 36003KT 22/19 A2999 RMK A01 T02190191  RH  084%=      5-min Rain = 0
KPD2 141216Z 35003KT 22/19 A2999 RMK A01 T02190191  RH  084%=      5-min Rain = 0
KPD2 141217Z 32002KT 22/19 A2999 RMK A01 T02190191  RH  084%=      5-min Rain = 0
KPD2 141218Z 32002KT 22/19 A2999 RMK A01 T02190191  RH  084%=      5-min Rain = 0
KPD2 141219Z 32003KT 22/19 A2999 RMK A01 T02190192  RH  084%=      5-min Rain = 0
KPD2 141220Z 33002KT 22/19 A2999 RMK A01 T02190192  RH  084%=      5-min Rain = 0
KPD2 141221Z 32001KT 22/19 A2999 RMK A01 T02190192  RH  084%=      5-min Rain = 0
KPD2 141222Z 30001KT 22/19 A2999 RMK A01 T02190192  RH  084%=      5-min Rain = 0
KPD2 141223Z 30001KT 22/19 A30 RMK A01 T02190192  RH  084%=      5-min Rain = 0
KPD2 141224Z 31001KT 22/19 A30 RMK A01 T02190191  RH  085%=      5-min Rain = 0
KPD2 141225Z 32001KT 22/19 A2999 RMK A01 T02190192  RH  085%=      5-min Rain = 0
KPD2 141226Z 31002KT 22/19 A2999 RMK A01 T02180192  RH  085%=      5-min Rain = 0
KPD2 141227Z 32003KT 22/19 A2999 RMK A01 T02180192  RH  085%=      5-min Rain = 0
KPD2 141228Z 33004KT 22/19 A2999 RMK A01 T02180192  RH  085%=      5-min Rain = 0
KPD2 141229Z 33004KT 22/19 A2999 RMK A01 T02170191  RH  085%=      5-min Rain = 0
KPD2 141230Z 33004KT 22/19 A2999 RMK A01 T02170192  RH  085%=      5-min Rain = 0
KPD2 141231Z 33004KT 22/19 A2999 RMK A01 T02170192  RH  085%=      5-min Rain = 0
KPD2 141232Z 34005KT 22/19 A2999 RMK A01 T02180191  RH  085%=      5-min Rain = 0
KPD2 141233Z 34004KT 22/19 A2999 RMK A01 T02180192  RH  085%=      5-min Rain = 0
KPD2 141234Z 35005KT 22/19 A2999 RMK A01 T02180192  RH  085%=      5-min Rain = 0
KPD2 141235Z 35005KT 22/19 A2998 RMK A01 T02180193  RH  086%=      5-min Rain = 0
KPD2 141236Z 34005KT 22/19 A2998 RMK A01 T02180193  RH  086%=      5-min Rain = 0
KPD2 141237Z 34004KT 22/19 A2998 RMK A01 T02190194  RH  086%=      5-min Rain = 0
KPD2 141238Z 32003KT 22/20 A2999 RMK A01 T02210195  RH  086%=      5-min Rain = 0
KPD2 141239Z 30001KT 22/20 A2999 RMK A01 T02210195  RH  085%=      5-min Rain = 0
KPD2 141240Z 29000KT 22/20 A2999 RMK A01 T02220195  RH  085%=      5-min Rain = 0
KPD2 141241Z 17000KT 22/20 A2999 RMK A01 T02230195  RH  084%=      5-min Rain = 0
KPD2 141242Z 17002KT 22/20 A2999 RMK A01 T02230195  RH  084%=      5-min Rain = 0
KPD2 141243Z 16003KT 22/20 A2999 RMK A01 T02240195  RH  083%=      5-min Rain = 0
KPD2 141244Z 16002KT 23/19 A2999 RMK A01 T02250194  RH  083%=      5-min Rain = 0
KPD2 141245Z 16000KT 23/19 A2999 RMK A01 T02250194  RH  083%=      5-min Rain = 0
KPD2 141246Z 12000KT 23/19 A2999 RMK A01 T02250194  RH  083%=      5-min Rain = 0
KPD2 141247Z 01002KT 22/19 A2999 RMK A01 T02240194  RH  083%=      5-min Rain = 0
KPD2 141248Z 36003KT 22/19 A2999 RMK A01 T02230193  RH  083%=      5-min Rain = 0
KPD2 141249Z 35003KT 22/19 A2999 RMK A01 T02230193  RH  083%=      5-min Rain = 0
KPD2 141250Z 00003KT 22/19 A2999 RMK A01 T02230194  RH  084%=      5-min Rain = 0
KPD2 141251Z 01002KT 22/19 A2999 RMK A01 T02230194  RH  084%=      5-min Rain = 0
KPD2 141252Z 01000KT 22/19 A2999 RMK A01 T02230194  RH  084%=      5-min Rain = 0
KPD2 141253Z 29001KT 22/19 A2999 RMK A01 T02230194  RH  084%=      5-min Rain = 0
KPD2 141254Z 30001KT 22/19 A2999 RMK A01 T02230194  RH  084%=      5-min Rain = 0
KPD2 141255Z 34002KT 22/19 A2999 RMK A01 T02230194  RH  084%=      5-min Rain = 0
KPD2 141256Z 35003KT 22/19 A2999 RMK A01 T02230194  RH  084%=      5-min Rain = 0
KPD2 141257Z 35004KT 22/19 A2999 RMK A01 T02230194  RH  084%=      5-min Rain = 0
KPD2 141258Z 33003KT 22/19 A2999 RMK A01 T02230194  RH  084%=      5-min Rain = 0
KPD2 141259Z 32003KT 22/20 A2999 RMK A01 T02240195  RH  084%=      5-min Rain = 0
KPD2 141300Z 31005KT 22/20 A2999 RMK A01 T02240195  RH  084%=      5-min Rain = 0
KPD2 141301Z 30004KT 23/20 A2999 RMK A01 T02250196  RH  083%=      5-min Rain = 0
KPD2 141302Z 32004KT 23/20 A2999 RMK A01 T02260195  RH  083%=      5-min Rain = 0
KPD2 141303Z 33003KT 23/20 A2999 RMK A01 T02260195  RH  083%=      5-min Rain = 0
KPD2 141304Z 34004KT 23/20 A2999 RMK A01 T02260195  RH  083%=      5-min Rain = 0
KPD2 141305Z 35004KT 23/20 A2999 RMK A01 T02260195  RH  083%=      5-min Rain = 0
KPD2 141306Z 35004KT 23/20 A2998 RMK A01 T02260195  RH  083%=      5-min Rain = 0
KPD2 141307Z 34004KT 23/20 A2998 RMK A01 T02260195  RH  083%=      5-min Rain = 0
KPD2 141308Z 34005KT 23/20 A2998 RMK A01 T02260196  RH  083%=      5-min Rain = 0
KPD2 141309Z 34004KT 23/20 A2999 RMK A01 T02260195  RH  083%=      5-min Rain = 0
KPD2 141310Z 34004KT 23/20 A2999 RMK A01 T02260196  RH  083%=      5-min Rain = 0
KPD2 141311Z 33003KT 23/20 A2999 RMK A01 T02270196  RH  083%=      5-min Rain = 0
KPD2 141312Z 33003KT 23/20 A2999 RMK A01 T02270197  RH  083%=      5-min Rain = 0
KPD2 141313Z 33003KT 23/20 A2999 RMK A01 T02280198  RH  083%=      5-min Rain = 0
KPD2 141314Z 35004KT 23/20 A2999 RMK A01 T02290197  RH  082%=      5-min Rain = 0
KPD2 141315Z 34004KT 23/20 A2999 RMK A01 T02300197  RH  082%=      5-min Rain = 0
KPD2 141316Z 34005KT 23/20 A2999 RMK A01 T02310196  RH  081%=      5-min Rain = 0
KPD2 141317Z 35005KT 23/20 A2998 RMK A01 T02320197  RH  081%=      5-min Rain = 0
KPD2 141318Z 34004KT 23/20 A2998 RMK A01 T02330197  RH  080%=      5-min Rain = 0
KPD2 141319Z 33004KT 23/20 A2998 RMK A01 T02340197  RH  080%=      5-min Rain = 0
KPD2 141320Z 33003KT 23/20 A2998 RMK A01 T02340196  RH  079%=      5-min Rain = 0
KPD2 141321Z 34004KT 24/20 A2998 RMK A01 T02350197  RH  079%=      5-min Rain = 0
KPD2 141322Z 34003KT 24/20 A2998 RMK A01 T02360198  RH  079%=      5-min Rain = 0
KPD2 141323Z 32003KT 24/20 A2998 RMK A01 T02360197  RH  079%=      5-min Rain = 0
KPD2 141324Z 33003KT 24/20 A2998 RMK A01 T02370197  RH  078%=      5-min Rain = 0
KPD2 141325Z 32004KT 24/20 A2998 RMK A01 T02360196  RH  078%=      5-min Rain = 0
KPD2 141326Z 31004KT 24/20 A2998 RMK A01 T02370196  RH  078%=      5-min Rain = 0
KPD2 141327Z 31004KT 24/20 A2999 RMK A01 T02370196  RH  078%=      5-min Rain = 0
KPD2 141328Z 31003KT 24/20 A2999 RMK A01 T02370196  RH  078%=      5-min Rain = 0
KPD2 141329Z 32003KT 24/20 A2999 RMK A01 T02380196  RH  078%=      5-min Rain = 0
KPD2 141330Z 31002KT 24/20 A2999 RMK A01 T02390196  RH  077%=      5-min Rain = 0
KPD2 141331Z 32003KT 24/20 A2999 RMK A01 T02400198  RH  077%=      5-min Rain = 0
KPD2 141332Z 31002KT 24/20 A2999 RMK A01 T02410198  RH  077%=      5-min Rain = 0
KPD2 141333Z 31001KT 24/20 A2999 RMK A01 T02420199  RH  076%=      5-min Rain = 0
KPD2 141334Z 31003KT 24/20 A2999 RMK A01 T02440198  RH  076%=      5-min Rain = 0
KPD2 141335Z 32003KT 24/20 A2999 RMK A01 T02440198  RH  075%=      5-min Rain = 0
KPD2 141336Z 31003KT 25/20 A2999 RMK A01 T02460198  RH  075%=      5-min Rain = 0
KPD2 141337Z 32002KT 25/20 A2999 RMK A01 T02470198  RH  074%=      5-min Rain = 0
KPD2 141338Z 27001KT 25/20 A2999 RMK A01 T02470198  RH  074%=      5-min Rain = 0
KPD2 141339Z 29002KT 25/20 A2999 RMK A01 T02480199  RH  074%=      5-min Rain = 0
KPD2 141340Z 29003KT 25/20 A2999 RMK A01 T02480198  RH  074%=      5-min Rain = 0
KPD2 141341Z 31004KT 25/20 A2999 RMK A01 T02480198  RH  074%=      5-min Rain = 0
KPD2 141342Z 32004KT 25/20 A2999 RMK A01 T02490198  RH  073%=      5-min Rain = 0
KPD2 141343Z 34003KT 25/20 A2999 RMK A01 T02500198  RH  073%=      5-min Rain = 0
KPD2 141344Z 34005KT 25/20 A2999 RMK A01 T02510199  RH  073%=      5-min Rain = 0
KPD2 141345Z 35005KT 25/20 A2999 RMK A01 T02510198  RH  072%=      5-min Rain = 0
KPD2 141346Z 34004KT 25/20 A2999 RMK A01 T02520199  RH  072%=      5-min Rain = 0
KPD2 141347Z 32003KT 25/20 A2999 RMK A01 T02520199  RH  072%=      5-min Rain = 0
KPD2 141348Z 32005KT 25/20 A2999 RMK A01 T02530199  RH  072%=      5-min Rain = 0
KPD2 141349Z 32003KT 25/20 A2999 RMK A01 T02540198  RH  071%=      5-min Rain = 0
KPD2 141350Z 32002KT 25/20 A2999 RMK A01 T02540199  RH  072%=      5-min Rain = 0
KPD2 141351Z 33003KT 26/20 A2999 RMK A01 T02550201  RH  072%=      5-min Rain = 0
KPD2 141352Z 32003KT 26/20 A2999 RMK A01 T02560201  RH  072%=      5-min Rain = 0
KPD2 141353Z 35001KT 26/20 A2999 RMK A01 T02570201  RH  071%=      5-min Rain = 0
KPD2 141354Z 32002KT 26/20 A2999 RMK A01 T02570201  RH  071%=      5-min Rain = 0
KPD2 141355Z 31003KT 26/20 A2999 RMK A01 T02580200  RH  070%=      5-min Rain = 0
KPD2 141356Z 30003KT 26/20 A2999 RMK A01 T02570200  RH  071%=      5-min Rain = 0
KPD2 141357Z 31003KT 26/20 A2999 RMK A01 T02570200  RH  071%=      5-min Rain = 0
KPD2 141358Z 32002KT 26/20 A2999 RMK A01 T02570200  RH  071%=      5-min Rain = 0
KPD2 141359Z 34002KT 26/20 A2999 RMK A01 T02570201  RH  071%=      5-min Rain = 0
KPD2 141400Z 34003KT 26/20 A2999 RMK A01 T02570200  RH  071%=      5-min Rain = 0
KPD2 141401Z 35003KT 26/20 A2999 RMK A01 T02570201  RH  071%=      5-min Rain = 0
KPD2 141402Z 34002KT 26/20 A2999 RMK A01 T02590203  RH  071%=      5-min Rain = 0
KPD2 141403Z 34002KT 26/20 A2999 RMK A01 T02600202  RH  070%=      5-min Rain = 0
KPD2 141404Z 35002KT 26/20 A2999 RMK A01 T02610201  RH  070%=      5-min Rain = 0
KPD2 141405Z 34001KT 26/20 A2999 RMK A01 T02610200  RH  069%=      5-min Rain = 0
KPD2 141406Z 33002KT 26/20 A2999 RMK A01 T02610200  RH  069%=      5-min Rain = 0
KPD2 141407Z 31000KT 26/20 A2999 RMK A01 T02600200  RH  070%=      5-min Rain = 0
KPD2 141408Z 31000KT 26/20 A2999 RMK A01 T02600201  RH  070%=      5-min Rain = 0
KPD2 141409Z 25001KT 26/20 A2999 RMK A01 T02600200  RH  070%=      5-min Rain = 0
KPD2 141410Z 25001KT 26/20 A2999 RMK A01 T02590201  RH  070%=      5-min Rain = 0
KPD2 141411Z 00000KT 26/20 A2999 RMK A01 T02600203  RH  071%=      5-min Rain = 0
KPD2 141412Z 30001KT 26/20 A2999 RMK A01 T02600203  RH  071%=      5-min Rain = 0
KPD2 141413Z 33002KT 26/20 A2999 RMK A01 T02610202  RH  070%=      5-min Rain = 0
KPD2 141414Z 31002KT 26/20 A2999 RMK A01 T02600202  RH  070%=      5-min Rain = 0
KPD2 141415Z 29003KT 26/20 A2999 RMK A01 T02600202  RH  070%=      5-min Rain = 0
KPD2 141416Z 31002KT 26/20 A2999 RMK A01 T02600201  RH  070%=      5-min Rain = 0
KPD2 141417Z 31003KT 26/20 A2999 RMK A01 T02600202  RH  070%=      5-min Rain = 0
KPD2 141418Z 31002KT 26/20 A2999 RMK A01 T02600202  RH  070%=      5-min Rain = 0
KPD2 141419Z 32002KT 26/20 A2999 RMK A01 T02600201  RH  070%=      5-min Rain = 0
KPD2 141420Z 34002KT 26/20 A2999 RMK A01 T02600202  RH  070%=      5-min Rain = 0
KPD2 141421Z 34003KT 26/20 A2999 RMK A01 T02600202  RH  070%=      5-min Rain = 0
KPD2 141422Z 36003KT 26/20 A2999 RMK A01 T02610203  RH  071%=      5-min Rain = 0
KPD2 141423Z 35003KT 26/21 A2999 RMK A01 T02620205  RH  071%=      5-min Rain = 0
KPD2 141424Z 00002KT 26/20 A2999 RMK A01 T02630204  RH  070%=      5-min Rain = 0
KPD2 141425Z 00004KT 26/20 A2999 RMK A01 T02640204  RH  070%=      5-min Rain = 0
KPD2 141426Z 01003KT 26/20 A2999 RMK A01 T02640202  RH  069%=      5-min Rain = 0
KPD2 141427Z 00003KT 26/20 A2999 RMK A01 T02640202  RH  069%=      5-min Rain = 0
KPD2 141428Z 36003KT 27/20 A2999 RMK A01 T02650202  RH  069%=      5-min Rain = 0
KPD2 141429Z 01002KT 27/20 A2999 RMK A01 T02650203  RH  068%=      5-min Rain = 0
KPD2 141430Z 01003KT 27/20 A2999 RMK A01 T02660203  RH  068%=      5-min Rain = 0
KPD2 141431Z 01002KT 27/20 A2999 RMK A01 T02660203  RH  068%=      5-min Rain = 0
KPD2 141432Z 01003KT 27/20 A2999 RMK A01 T02670203  RH  068%=      5-min Rain = 0
KPD2 141433Z 02003KT 27/20 A2999 RMK A01 T02680204  RH  068%=      5-min Rain = 0
KPD2 141434Z 01003KT 27/20 A2999 RMK A01 T02680204  RH  068%=      5-min Rain = 0
KPD2 141435Z 02001KT 27/20 A2999 RMK A01 T02690203  RH  067%=      5-min Rain = 0
KPD2 141436Z 32001KT 27/20 A2999 RMK A01 T02690202  RH  067%=      5-min Rain = 0
KPD2 141437Z 00000KT 27/20 A2999 RMK A01 T02690202  RH  066%=      5-min Rain = 0
KPD2 141438Z 00000KT 27/20 A2999 RMK A01 T02690201  RH  066%=      5-min Rain = 0
KPD2 141439Z 01001KT 27/20 A2999 RMK A01 T02690201  RH  066%=      5-min Rain = 0
KPD2 141440Z 04003KT 27/20 A2999 RMK A01 T02690203  RH  067%=      5-min Rain = 0
KPD2 141441Z 02004KT 27/20 A2999 RMK A01 T02700202  RH  066%=      5-min Rain = 0
KPD2 141442Z 02002KT 27/20 A2999 RMK A01 T02710203  RH  066%=      5-min Rain = 0
KPD2 141443Z 01001KT 27/20 A2999 RMK A01 T02730203  RH  066%=      5-min Rain = 0
KPD2 141444Z 01002KT 27/20 A2999 RMK A01 T02740203  RH  065%=      5-min Rain = 0
KPD2 141445Z 00002KT 28/20 A2999 RMK A01 T02760201  RH  064%=      5-min Rain = 0
KPD2 141446Z 00002KT 28/20 A2999 RMK A01 T02770202  RH  064%=      5-min Rain = 0
KPD2 141447Z 01003KT 28/20 A2999 RMK A01 T02800204  RH  064%=      5-min Rain = 0
KPD2 141448Z 35003KT 28/20 A2998 RMK A01 T02820204  RH  062%=      5-min Rain = 0
KPD2 141449Z 36005KT 28/20 A2998 RMK A01 T02840203  RH  062%=      5-min Rain = 0
KPD2 141450Z 34004KT 29/20 A2998 RMK A01 T02860203  RH  061%=      5-min Rain = 0
KPD2 141451Z 32002KT 29/20 A2998 RMK A01 T02870202  RH  060%=      5-min Rain = 0
KPD2 141452Z 36002KT 29/20 A2998 RMK A01 T02860202  RH  060%=      5-min Rain = 0
KPD2 141453Z 35002KT 29/20 A2998 RMK A01 T02860202  RH  060%=      5-min Rain = 0
KPD2 141454Z 01003KT 29/20 A2998 RMK A01 T02870203  RH  060%=      5-min Rain = 0
KPD2 141455Z 02001KT 29/20 A2998 RMK A01 T02900201  RH  059%=      5-min Rain = 0
KPD2 141456Z 07001KT 29/20 A2998 RMK A01 T02900200  RH  058%=      5-min Rain = 0
KPD2 141457Z 07001KT 29/20 A2998 RMK A01 T02910201  RH  058%=      5-min Rain = 0
KPD2 141458Z 05002KT 29/20 A2998 RMK A01 T02930201  RH  058%=      5-min Rain = 0
KPD2 141459Z 04003KT 29/20 A2998 RMK A01 T02940200  RH  057%=      5-min Rain = 0
KPD2 141500Z 03003KT 30/20 A2998 RMK A01 T02950202  RH  057%=      5-min Rain = 0
KPD2 141501Z 04002KT 30/20 A2998 RMK A01 T02970200  RH  056%=      5-min Rain = 0
KPD2 141502Z 03002KT 30/20 A2998 RMK A01 T02970199  RH  056%=      5-min Rain = 0
KPD2 141503Z 02001KT 30/20 A2998 RMK A01 T02980200  RH  056%=      5-min Rain = 0
KPD2 141504Z 02001KT 30/20 A2998 RMK A01 T02990200  RH  055%=      5-min Rain = 0
KPD2 141505Z 02000KT 30/20 A2998 RMK A01 T03010200  RH  055%=      5-min Rain = 0
KPD2 141506Z 04000KT 30/20 A2998 RMK A01 T03020198  RH  054%=      5-min Rain = 0
KPD2 141507Z 06001KT 30/20 A2998 RMK A01 T03030200  RH  054%=      5-min Rain = 0
KPD2 141508Z 10001KT 31/20 A2998 RMK A01 T03050200  RH  054%=      5-min Rain = 0
KPD2 141509Z 12001KT 31/20 A2998 RMK A01 T03070200  RH  053%=      5-min Rain = 0
KPD2 141510Z 11001KT 31/20 A2998 RMK A01 T03080200  RH  053%=      5-min Rain = 0
KPD2 141511Z 12001KT 31/20 A2998 RMK A01 T03080200  RH  052%=      5-min Rain = 0
KPD2 141512Z 11000KT 31/20 A2998 RMK A01 T03090199  RH  052%=      5-min Rain = 0
KPD2 141513Z 14000KT 31/20 A2998 RMK A01 T03090198  RH  052%=      5-min Rain = 0
KPD2 141514Z 00000KT 31/20 A2998 RMK A01 T03080198  RH  052%=      5-min Rain = 0
KPD2 141515Z 05000KT 31/20 A2998 RMK A01 T03070197  RH  052%=      5-min Rain = 0
KPD2 141516Z 06001KT 31/19 A2998 RMK A01 T03050194  RH  051%=      5-min Rain = 0
KPD2 141517Z 05002KT 31/20 A2998 RMK A01 T03050196  RH  052%=      5-min Rain = 0
KPD2 141518Z 04001KT 31/20 A2998 RMK A01 T03050195  RH  052%=      5-min Rain = 0
KPD2 141519Z 04002KT 31/20 A2998 RMK A01 T03060196  RH  052%=      5-min Rain = 0
KPD2 141520Z 36002KT 31/20 A2998 RMK A01 T03090199  RH  052%=      5-min Rain = 0
KPD2 141521Z 02001KT 31/20 A2998 RMK A01 T03110198  RH  051%=      5-min Rain = 0
KPD2 141522Z 02001KT 31/20 A2998 RMK A01 T03140198  RH  050%=      5-min Rain = 0
KPD2 141523Z 03001KT 32/20 A2998 RMK A01 T03160198  RH  050%=      5-min Rain = 0
KPD2 141524Z 04002KT 32/20 A2999 RMK A01 T03180198  RH  049%=      5-min Rain = 0
KPD2 141525Z 03002KT 32/19 A2999 RMK A01 T03210193  RH  047%=      5-min Rain = 0
KPD2 141526Z 17001KT 32/19 A2999 RMK A01 T03220192  RH  046%=      5-min Rain = 0
KPD2 141527Z 28002KT 32/19 A2999 RMK A01 T03240194  RH  046%=      5-min Rain = 0
KPD2 141528Z 30001KT 32/20 A2998 RMK A01 T03240196  RH  047%=      5-min Rain = 0
KPD2 141529Z 28002KT 32/19 A2998 RMK A01 T03240192  RH  046%=      5-min Rain = 0
KPD2 141530Z 27001KT 32/19 A2998 RMK A01 T03240191  RH  045%=      5-min Rain = 0
KPD2 141531Z 25001KT 32/19 A2998 RMK A01 T03230193  RH  046%=      5-min Rain = 0
KPD2 141532Z 22001KT 32/19 A2998 RMK A01 T03230191  RH  046%=      5-min Rain = 0
KPD2 141533Z 19000KT 32/19 A2998 RMK A01 T03220189  RH  045%=      5-min Rain = 0
KPD2 141534Z 06001KT 32/19 A2998 RMK A01 T03230188  RH  045%=      5-min Rain = 0
KPD2 141535Z 05001KT 33/18 A2998 RMK A01 T03250183  RH  043%=      5-min Rain = 0
KPD2 141536Z 05001KT 33/18 A2998 RMK A01 T03260182  RH  043%=      5-min Rain = 0
KPD2 141537Z 05000KT 33/18 A2999 RMK A01 T03280183  RH  042%=      5-min Rain = 0
KPD2 141538Z 02000KT 33/18 A2999 RMK A01 T03290182  RH  042%=      5-min Rain = 0
KPD2 141539Z 02001KT 33/18 A2999 RMK A01 T03290183  RH  042%=      5-min Rain = 0
KPD2 141540Z 02001KT 33/18 A2999 RMK A01 T03300179  RH  041%=      5-min Rain = 0
KPD2 141541Z 02002KT 33/18 A2999 RMK A01 T03320178  RH  040%=      5-min Rain = 0
KPD2 141542Z 02002KT 33/18 A2999 RMK A01 T03330177  RH  039%=      5-min Rain = 0
KPD2 141543Z 05002KT 33/18 A2998 RMK A01 T03340175  RH  039%=      5-min Rain = 0
KPD2 141544Z 08002KT 34/18 A2998 RMK A01 T03350176  RH  039%=      5-min Rain = 0
KPD2 141545Z 12001KT 34/18 A2999 RMK A01 T03360177  RH  039%=      5-min Rain = 0
KPD2 141546Z 06001KT 34/18 A2999 RMK A01 T03360179  RH  039%=      5-min Rain = 0
KPD2 141547Z 06001KT 34/18 A2999 RMK A01 T03370181  RH  040%=      5-min Rain = 0
KPD2 141548Z 06001KT 34/18 A2999 RMK A01 T03400181  RH  039%=      5-min Rain = 0
KPD2 141549Z 06003KT 34/18 A2998 RMK A01 T03420179  RH  038%=      5-min Rain = 0
KPD2 141550Z 10002KT 34/18 A2998 RMK A01 T03420179  RH  038%=      5-min Rain = 0
KPD2 141551Z 07001KT 34/18 A2998 RMK A01 T03430180  RH  038%=      5-min Rain = 0
KPD2 141552Z 07001KT 35/18 A2998 RMK A01 T03460181  RH  038%=      5-min Rain = 0
KPD2 141553Z 06002KT 35/18 A2998 RMK A01 T03490176  RH  036%=      5-min Rain = 0
KPD2 141554Z 03003KT 35/18 A2998 RMK A01 T03500175  RH  036%=      5-min Rain = 0
KPD2 141555Z 04003KT 35/18 A2998 RMK A01 T03500178  RH  036%=      5-min Rain = 0
KPD2 141556Z 05002KT 35/18 A2998 RMK A01 T03500177  RH  036%=      5-min Rain = 0
KPD2 141557Z 05002KT 35/18 A2998 RMK A01 T03500178  RH  036%=      5-min Rain = 0
KPD2 141558Z 03003KT 35/18 A2998 RMK A01 T03500179  RH  036%=      5-min Rain = 0
KPD2 141559Z 04002KT 35/18 A2998 RMK A01 T03500177  RH  036%=      5-min Rain = 0
KPD2 141600Z 03001KT 35/18 A2998 RMK A01 T03510178  RH  036%=      5-min Rain = 0
KPD2 141601Z 02000KT 35/18 A2998 RMK A01 T03530176  RH  035%=      5-min Rain = 0
KPD2 141602Z 00000KT 35/18 A2998 RMK A01 T03540175  RH  035%=      5-min Rain = 0
KPD2 141603Z 30001KT 35/18 A2998 RMK A01 T03540177  RH  035%=      5-min Rain = 0
KPD2 141604Z 31001KT 35/17 A2998 RMK A01 T03530173  RH  034%=      5-min Rain = 0
KPD2 141605Z 33002KT 35/17 A2998 RMK A01 T03520170  RH  034%=      5-min Rain = 0
KPD2 141606Z 30003KT 35/17 A2998 RMK A01 T03510170  RH  034%=      5-min Rain = 0
KPD2 141607Z 31002KT 35/17 A2998 RMK A01 T03490168  RH  034%=      5-min Rain = 0
KPD2 141608Z 32002KT 35/17 A2998 RMK A01 T03490165  RH  034%=      5-min Rain = 0
KPD2 141609Z 28002KT 35/16 A2998 RMK A01 T03480164  RH  033%=      5-min Rain = 0
KPD2 141610Z 25001KT 35/17 A2998 RMK A01 T03480165  RH  034%=      5-min Rain = 0
KPD2 141611Z 23000KT 35/16 A2998 RMK A01 T03480163  RH  033%=      5-min Rain = 0
KPD2 141612Z 00000KT 35/17 A2998 RMK A01 T03500166  RH  034%=      5-min Rain = 0
KPD2 141613Z 03001KT 35/17 A2998 RMK A01 T03510166  RH  033%=      5-min Rain = 0
KPD2 141614Z 25001KT 35/17 A2998 RMK A01 T03520167  RH  033%=      5-min Rain = 0
KPD2 141615Z 23002KT 36/17 A2998 RMK A01 T03550171  RH  034%=      5-min Rain = 0
KPD2 141616Z 22001KT 36/17 A2998 RMK A01 T03570169  RH  033%=      5-min Rain = 0
KPD2 141617Z 27002KT 36/17 A2998 RMK A01 T03580169  RH  033%=      5-min Rain = 0
KPD2 141618Z 29001KT 36/17 A2998 RMK A01 T03580169  RH  033%=      5-min Rain = 0
KPD2 141619Z 29002KT 36/17 A2998 RMK A01 T03570170  RH  033%=      5-min Rain = 0
KPD2 141620Z 26003KT 36/17 A2998 RMK A01 T03570170  RH  033%=      5-min Rain = 0
KPD2 141621Z 33003KT 36/17 A2998 RMK A01 T03560172  RH  034%=      5-min Rain = 0
KPD2 141622Z 30002KT 36/17 A2998 RMK A01 T03570172  RH  034%=      5-min Rain = 0
KPD2 141623Z 27004KT 36/17 A2998 RMK A01 T03590171  RH  033%=      5-min Rain = 0
KPD2 141624Z 26002KT 36/17 A2998 RMK A01 T03600168  RH  032%=      5-min Rain = 0
KPD2 141625Z 33001KT 36/17 A2998 RMK A01 T03600166  RH  032%=      5-min Rain = 0
KPD2 141626Z 29002KT 36/17 A2998 RMK A01 T03600168  RH  032%=      5-min Rain = 0
KPD2 141627Z 25003KT 36/17 A2998 RMK A01 T03610169  RH  032%=      5-min Rain = 0
KPD2 141628Z 27004KT 36/17 A2998 RMK A01 T03620169  RH  032%=      5-min Rain = 0
KPD2 141629Z 28004KT 36/17 A2998 RMK A01 T03640172  RH  032%=      5-min Rain = 0
KPD2 141630Z 29003KT 37/17 A2998 RMK A01 T03670172  RH  032%=      5-min Rain = 0
KPD2 141631Z 28004KT 37/17 A2998 RMK A01 T03680170  RH  031%=      5-min Rain = 0
KPD2 141632Z 30004KT 37/17 A2998 RMK A01 T03680168  RH  031%=      5-min Rain = 0
KPD2 141633Z 29003KT 37/17 A2998 RMK A01 T03670168  RH  031%=      5-min Rain = 0
KPD2 141634Z 28003KT 37/17 A2998 RMK A01 T03660167  RH  031%=      5-min Rain = 0
KPD2 141635Z 30005KT 37/17 A2998 RMK A01 T03660168  RH  031%=      5-min Rain = 0
KPD2 141636Z 30003KT 37/17 A2998 RMK A01 T03660168  RH  031%=      5-min Rain = 0
KPD2 141637Z 31002KT 37/17 A2998 RMK A01 T03650166  RH  031%=      5-min Rain = 0
KPD2 141638Z 30003KT 37/17 A2998 RMK A01 T03650166  RH  031%=      5-min Rain = 0
KPD2 141639Z 30003KT 37/17 A2998 RMK A01 T03650165  RH  031%=      5-min Rain = 0
KPD2 141640Z 32003KT 36/17 A2998 RMK A01 T03640166  RH  031%=      5-min Rain = 0
KPD2 141641Z 33003KT 36/17 A2998 RMK A01 T03640165  RH  031%=      5-min Rain = 0
KPD2 141642Z 32003KT 37/17 A2998 RMK A01 T03650166  RH  031%=      5-min Rain = 0
KPD2 141643Z 32001KT 37/16 A2998 RMK A01 T03650164  RH  031%=      5-min Rain = 0
KPD2 141644Z 25001KT 37/17 A2998 RMK A01 T03650165  RH  031%=      5-min Rain = 0
KPD2 141645Z 27003KT 37/17 A2998 RMK A01 T03670168  RH  031%=      5-min Rain = 0
KPD2 141646Z 32002KT 37/17 A2998 RMK A01 T03700171  RH  031%=      5-min Rain = 0
KPD2 141647Z 33003KT 37/17 A2998 RMK A01 T03740168  RH  030%=      5-min Rain = 0
KPD2 141648Z 36003KT 37/17 A2998 RMK A01 T03740169  RH  030%=      5-min Rain = 0
KPD2 141649Z 36003KT 38/17 A2998 RMK A01 T03760169  RH  030%=      5-min Rain = 0
KPD2 141650Z 01001KT 38/17 A2998 RMK A01 T03790165  RH  028%=      5-min Rain = 0
KPD2 141651Z 34003KT 38/17 A2998 RMK A01 T03800166  RH  028%=      5-min Rain = 0
KPD2 141652Z 02003KT 38/16 A2998 RMK A01 T03800164  RH  028%=      5-min Rain = 0
KPD2 141653Z 36002KT 38/16 A2998 RMK A01 T03800163  RH  028%=      5-min Rain = 0
KPD2 141654Z 31004KT 38/17 A2998 RMK A01 T03820165  RH  028%=      5-min Rain = 0
KPD2 141655Z 29004KT 38/16 A2998 RMK A01 T03830162  RH  027%=      5-min Rain = 0
KPD2 141656Z 32003KT 38/16 A2998 RMK A01 T03800160  RH  027%=      5-min Rain = 0
KPD2 141657Z 33004KT 38/16 A2998 RMK A01 T03770160  RH  028%=      5-min Rain = 0
KPD2 141658Z 34005KT 38/16 A2998 RMK A01 T03760163  RH  029%=      5-min Rain = 0
KPD2 141659Z 00003KT 38/16 A2998 RMK A01 T03800162  RH  028%=      5-min Rain = 0
KPD2 141700Z 36002KT 38/16 A2998 RMK A01 T03830161  RH  027%=      5-min Rain = 0
KPD2 141701Z 04001KT 38/16 A2998 RMK A01 T03840159  RH  027%=      5-min Rain = 0
KPD2 141702Z 34001KT 38/16 A2998 RMK A01 T03830160  RH  027%=      5-min Rain = 0
KPD2 141703Z 34004KT 38/16 A2998 RMK A01 T03840161  RH  027%=      5-min Rain = 0
KPD2 141704Z 01004KT 39/16 A2998 RMK A01 T03850162  RH  027%=      5-min Rain = 0
KPD2 141705Z 01006KT 39/16 A2997 RMK A01 T03880162  RH  027%=      5-min Rain = 0
KPD2 141706Z 34006KT 39/16 A2997 RMK A01 T03890162  RH  026%=      5-min Rain = 0
KPD2 141707Z 35004KT 39/16 A2997 RMK A01 T03890159  RH  026%=      5-min Rain = 0
KPD2 141708Z 00005KT 39/16 A2997 RMK A01 T03870161  RH  027%=      5-min Rain = 0
KPD2 141709Z 00004KT 39/16 A2997 RMK A01 T03880162  RH  027%=      5-min Rain = 0
KPD2 141710Z 35005KT 39/16 A2997 RMK A01 T03900164  RH  027%=      5-min Rain = 0
KPD2 141711Z 35005KT 39/17 A2997 RMK A01 T03920165  RH  026%=      5-min Rain = 0
KPD2 141712Z 02005KT 39/16 A2997 RMK A01 T03940162  RH  026%=      5-min Rain = 0
KPD2 141713Z 02005KT 39/16 A2997 RMK A01 T03940164  RH  026%=      5-min Rain = 0
KPD2 141714Z 00005KT 40/16 A2997 RMK A01 T03970163  RH  026%=      5-min Rain = 0
KPD2 141715Z 02003KT 40/16 A2997 RMK A01 T03980162  RH  025%=      5-min Rain = 0
KPD2 141716Z 01004KT 40/16 A2997 RMK A01 T03980162  RH  025%=      5-min Rain = 0
KPD2 141717Z 02004KT 40/16 A2997 RMK A01 T03980163  RH  025%=      5-min Rain = 0
KPD2 141718Z 05004KT 40/16 A2997 RMK A01 T03960159  RH  025%=      5-min Rain = 0
KPD2 141719Z 08001KT 39/16 A2997 RMK A01 T03940158  RH  025%=      5-min Rain = 0
KPD2 141720Z 31002KT 39/16 A2997 RMK A01 T03910161  RH  026%=      5-min Rain = 0
KPD2 141721Z 29004KT 39/16 A2997 RMK A01 T03920158  RH  025%=      5-min Rain = 0
KPD2 141722Z 30006KT 39/16 A2997 RMK A01 T03920157  RH  025%=      5-min Rain = 0
KPD2 141723Z 26003KT 39/16 A2997 RMK A01 T03920156  RH  025%=      5-min Rain = 0
KPD2 141724Z 31002KT 39/16 A2997 RMK A01 T03920155  RH  025%=      5-min Rain = 0
KPD2 141725Z 31004KT 39/16 A2997 RMK A01 T03910156  RH  025%=      5-min Rain = 0
KPD2 141726Z 31004KT 39/16 A2997 RMK A01 T03930157  RH  025%=      5-min Rain = 0
KPD2 141727Z 32004KT 40/16 A2997 RMK A01 T03950156  RH  025%=      5-min Rain = 0
KPD2 141728Z 33005KT 40/16 A2997 RMK A01 T03950157  RH  025%=      5-min Rain = 0
KPD2 141729Z 32003KT 40/15 A2997 RMK A01 T03970154  RH  024%=      5-min Rain = 0
KPD2 141730Z 31002KT 40/15 A2997 RMK A01 T03950152  RH  024%=      5-min Rain = 0
KPD2 141731Z 27004KT 39/15 A2997 RMK A01 T03940154  RH  024%=      5-min Rain = 0
KPD2 141732Z 30002KT 39/15 A2997 RMK A01 T03940153  RH  024%=      5-min Rain = 0
KPD2 141733Z 06000KT 39/15 A2996 RMK A01 T03930154  RH  025%=      5-min Rain = 0
KPD2 141734Z 35002KT 39/15 A2996 RMK A01 T03920154  RH  025%=      5-min Rain = 0
KPD2 141735Z 34005KT 39/15 A2996 RMK A01 T03920154  RH  025%=      5-min Rain = 0
KPD2 141736Z 34004KT 39/16 A2996 RMK A01 T03930157  RH  025%=      5-min Rain = 0
KPD2 141737Z 30003KT 40/16 A2996 RMK A01 T03950156  RH  025%=      5-min Rain = 0
KPD2 141738Z 25002KT 40/16 A2996 RMK A01 T03950155  RH  024%=      5-min Rain = 0
KPD2 141739Z 18002KT 39/15 A2996 RMK A01 T03940154  RH  024%=      5-min Rain = 0
KPD2 141740Z 15001KT 39/15 A2996 RMK A01 T03930154  RH  025%=      5-min Rain = 0
KPD2 141741Z 33000KT 39/16 A2996 RMK A01 T03940155  RH  025%=      5-min Rain = 0
KPD2 141742Z 03002KT 40/16 A2996 RMK A01 T03960156  RH  024%=      5-min Rain = 0
KPD2 141743Z 03004KT 40/16 A2996 RMK A01 T04000158  RH  024%=      5-min Rain = 0
KPD2 141744Z 34006KT 40/16 A2996 RMK A01 T04030157  RH  024%=      5-min Rain = 0
KPD2 141745Z 31004KT 41/16 A2996 RMK A01 T04080155  RH  023%=      5-min Rain = 0
KPD2 141746Z 29003KT 41/15 A2996 RMK A01 T04080148  RH  022%=      5-min Rain = 0
KPD2 141747Z 29003KT 41/15 A2996 RMK A01 T04060146  RH  022%=      5-min Rain = 0
KPD2 141748Z 34003KT 40/15 A2996 RMK A01 T04030145  RH  022%=      5-min Rain = 0
KPD2 141749Z 35002KT 40/15 A2996 RMK A01 T04010148  RH  023%=      5-min Rain = 0
KPD2 141750Z 09001KT 40/15 A2996 RMK A01 T04020145  RH  022%=      5-min Rain = 0
KPD2 141751Z 09000KT 40/15 A2996 RMK A01 T04020147  RH  022%=      5-min Rain = 0
KPD2 141752Z 21001KT 40/15 A2996 RMK A01 T04010148  RH  023%=      5-min Rain = 0
KPD2 141753Z 19003KT 40/15 A2995 RMK A01 T04000147  RH  023%=      5-min Rain = 0
KPD2 141754Z 16001KT 40/15 A2995 RMK A01 T03970149  RH  023%=      5-min Rain = 0
KPD2 141755Z 20002KT 40/15 A2995 RMK A01 T03980150  RH  023%=      5-min Rain = 0
KPD2 141756Z 18003KT 40/15 A2995 RMK A01 T03990153  RH  024%=      5-min Rain = 0
KPD2 141757Z 19003KT 40/16 A2995 RMK A01 T03970156  RH  024%=      5-min Rain = 0
KPD2 141758Z 11001KT 40/16 A2995 RMK A01 T03950156  RH  025%=      5-min Rain = 0
KPD2 141759Z 06000KT 40/16 A2995 RMK A01 T03950157  RH  025%=      5-min Rain = 0
KPD2 141800Z 10003KT 40/16 A2995 RMK A01 T03970157  RH  025%=      5-min Rain = 0
KPD2 141801Z 08004KT 40/16 A2995 RMK A01 T04010159  RH  024%=      5-min Rain = 0
KPD2 141802Z 10004KT 41/16 A2995 RMK A01 T04050156  RH  023%=      5-min Rain = 0
KPD2 141803Z 13004KT 41/16 A2995 RMK A01 T04070159  RH  023%=      5-min Rain = 0
KPD2 141804Z 16005KT 41/16 A2995 RMK A01 T04090159  RH  023%=      5-min Rain = 0
KPD2 141805Z 17005KT 41/16 A2995 RMK A01 T04080157  RH  023%=      5-min Rain = 0
KPD2 141806Z 14004KT 41/16 A2995 RMK A01 T04060157  RH  023%=      5-min Rain = 0
KPD2 141807Z 21003KT 41/16 A2995 RMK A01 T04050158  RH  024%=      5-min Rain = 0
KPD2 141808Z 18004KT 40/16 A2995 RMK A01 T04040155  RH  023%=      5-min Rain = 0
KPD2 141809Z 19005KT 40/15 A2995 RMK A01 T04010153  RH  023%=      5-min Rain = 0
KPD2 141810Z 20005KT 40/16 A2995 RMK A01 T03990156  RH  024%=      5-min Rain = 0
KPD2 141811Z 21004KT 40/16 A2995 RMK A01 T04020156  RH  024%=      5-min Rain = 0
KPD2 141812Z 23003KT 40/16 A2995 RMK A01 T04040157  RH  024%=      5-min Rain = 0
KPD2 141813Z 24001KT 41/16 A2995 RMK A01 T04060156  RH  023%=      5-min Rain = 0
KPD2 141814Z 19003KT 41/15 A2995 RMK A01 T04060154  RH  023%=      5-min Rain = 0
KPD2 141815Z 13002KT 40/15 A2995 RMK A01 T04040154  RH  023%=      5-min Rain = 0
KPD2 141816Z 14003KT 40/16 A2995 RMK A01 T04040155  RH  023%=      5-min Rain = 0
KPD2 141817Z 11006KT 41/16 A2995 RMK A01 T04060156  RH  023%=      5-min Rain = 0
KPD2 141818Z 09004KT 41/16 A2995 RMK A01 T04080157  RH  023%=      5-min Rain = 0
KPD2 141819Z 11005KT 41/16 A2995 RMK A01 T04110156  RH  023%=      5-min Rain = 0
KPD2 141820Z 08005KT 41/16 A2995 RMK A01 T04130156  RH  022%=      5-min Rain = 0
KPD2 141821Z 10006KT 41/16 A2995 RMK A01 T04130156  RH  022%=      5-min Rain = 0
KPD2 141822Z 12004KT 41/16 A2995 RMK A01 T04130156  RH  022%=      5-min Rain = 0
KPD2 141823Z 08003KT 41/15 A2995 RMK A01 T04080152  RH  022%=      5-min Rain = 0
KPD2 141824Z 10004KT 41/16 A2995 RMK A01 T04050155  RH  023%=      5-min Rain = 0
KPD2 141825Z 13004KT 41/16 A2995 RMK A01 T04070155  RH  023%=      5-min Rain = 0
KPD2 141826Z 15004KT 41/15 A2994 RMK A01 T04100153  RH  022%=      5-min Rain = 0
KPD2 141827Z 07003KT 41/15 A2994 RMK A01 T04090153  RH  023%=      5-min Rain = 0
KPD2 141828Z 05003KT 41/15 A2994 RMK A01 T04060151  RH  022%=      5-min Rain = 0
KPD2 141829Z 33001KT 40/15 A2994 RMK A01 T04030152  RH  023%=      5-min Rain = 0
KPD2 141830Z 01001KT 40/15 A2994 RMK A01 T04040152  RH  023%=      5-min Rain = 0
KPD2 141831Z 14002KT 40/15 A2994 RMK A01 T04040151  RH  023%=      5-min Rain = 0
KPD2 141832Z 30001KT 41/15 A2994 RMK A01 T04050149  RH  022%=      5-min Rain = 0
KPD2 141833Z 35005KT 40/15 A2994 RMK A01 T04030150  RH  023%=      5-min Rain = 0
KPD2 141834Z 34004KT 40/15 A2994 RMK A01 T04020148  RH  023%=      5-min Rain = 0
KPD2 141835Z 35003KT 40/15 A2994 RMK A01 T04000150  RH  023%=      5-min Rain = 0
KPD2 141836Z 31004KT 40/15 A2994 RMK A01 T04030151  RH  023%=      5-min Rain = 0
KPD2 141837Z 02002KT 41/15 A2994 RMK A01 T04050150  RH  022%=      5-min Rain = 0
KPD2 141838Z 02001KT 41/15 A2994 RMK A01 T04060150  RH  022%=      5-min Rain = 0
KPD2 141839Z 10006KT 41/15 A2994 RMK A01 T04080151  RH  022%=      5-min Rain = 0
KPD2 141840Z 11006KT 41/15 A2994 RMK A01 T04100151  RH  022%=      5-min Rain = 0
KPD2 141841Z 14007KT 41/15 A2994 RMK A01 T04130152  RH  022%=      5-min Rain = 0
KPD2 141842Z 14008KT 42/15 A2994 RMK A01 T04150150  RH  021%=      5-min Rain = 0
KPD2 141843Z 14007KT 41/15 A2994 RMK A01 T04120148  RH  021%=      5-min Rain = 0
KPD2 141844Z 09007KT 41/15 A2994 RMK A01 T04090150  RH  022%=      5-min Rain = 0
KPD2 141845Z 08004KT 41/15 A2994 RMK A01 T04130147  RH  021%=      5-min Rain = 0
KPD2 141846Z 05005KT 42/15 A2994 RMK A01 T04150145  RH  021%=      5-min Rain = 0
KPD2 141847Z 06007KT 42/14 A2994 RMK A01 T04150141  RH  020%=      5-min Rain = 0
KPD2 141848Z 06006KT 41/14 A2994 RMK A01 T04110139  RH  020%=      5-min Rain = 0
KPD2 141849Z 04006KT 41/14 A2994 RMK A01 T04090136  RH  020%=      5-min Rain = 0
KPD2 141850Z 33003KT 41/14 A2994 RMK A01 T04080135  RH  020%=      5-min Rain = 0
KPD2 141851Z 29002KT 41/14 A2993 RMK A01 T04070138  RH  021%=      5-min Rain = 0
KPD2 141852Z 01003KT 41/14 A2993 RMK A01 T04070138  RH  021%=      5-min Rain = 0
KPD2 141853Z 03004KT 41/14 A2993 RMK A01 T04110137  RH  020%=      5-min Rain = 0
KPD2 141854Z 04004KT 42/13 A2993 RMK A01 T04160133  RH  019%=      5-min Rain = 0
KPD2 141855Z 04004KT 42/14 A2993 RMK A01 T04210139  RH  019%=      5-min Rain = 0
KPD2 141856Z 04003KT 42/13 A2993 RMK A01 T04240133  RH  018%=      5-min Rain = 0
KPD2 141857Z 11001KT 42/13 A2993 RMK A01 T04220129  RH  018%=      5-min Rain = 0
KPD2 141858Z 17002KT 42/13 A2993 RMK A01 T04210127  RH  018%=      5-min Rain = 0
KPD2 141859Z 02001KT 42/13 A2993 RMK A01 T04200128  RH  018%=      5-min Rain = 0
KPD2 141900Z 27002KT 42/13 A2993 RMK A01 T04200130  RH  018%=      5-min Rain = 0
KPD2 141901Z 27005KT 42/13 A2993 RMK A01 T04220128  RH  018%=      5-min Rain = 0
KPD2 141902Z 30005KT 42/13 A2993 RMK A01 T04220125  RH  017%=      5-min Rain = 0
KPD2 141903Z 29003KT 42/13 A2992 RMK A01 T04200125  RH  018%=      5-min Rain = 0
KPD2 141904Z 32002KT 42/13 A2992 RMK A01 T04180125  RH  018%=      5-min Rain = 0
KPD2 141905Z 29004KT 41/12 A2992 RMK A01 T04140121  RH  018%=      5-min Rain = 0
KPD2 141906Z 31003KT 41/11 A2992 RMK A01 T04100114  RH  017%=      5-min Rain = 0
KPD2 141907Z 34003KT 41/11 A2992 RMK A01 T04050113  RH  018%=      5-min Rain = 0
KPD2 141908Z 36003KT 40/12 A2992 RMK A01 T04040118  RH  018%=      5-min Rain = 0
KPD2 141909Z 01002KT 40/12 A2992 RMK A01 T04030119  RH  019%=      5-min Rain = 0
KPD2 141910Z 02002KT 40/12 A2992 RMK A01 T04040121  RH  019%=      5-min Rain = 0
KPD2 141911Z 03001KT 40/12 A2992 RMK A01 T04040117  RH  018%=      5-min Rain = 0
KPD2 141912Z 13000KT 40/12 A2992 RMK A01 T04040118  RH  018%=      5-min Rain = 0
KPD2 141913Z 17002KT 41/12 A2992 RMK A01 T04050119  RH  018%=      5-min Rain = 0
KPD2 141914Z 17003KT 41/12 A2992 RMK A01 T04050120  RH  019%=      5-min Rain = 0
KPD2 141915Z 14004KT 40/13 A2992 RMK A01 T04040126  RH  019%=      5-min Rain = 0
KPD2 141916Z 16002KT 40/13 A2992 RMK A01 T04040128  RH  020%=      5-min Rain = 0
KPD2 141917Z 16004KT 40/13 A2992 RMK A01 T04030127  RH  020%=      5-min Rain = 0
KPD2 141918Z 12004KT 40/13 A2992 RMK A01 T04030127  RH  020%=      5-min Rain = 0
KPD2 141919Z 12002KT 40/13 A2992 RMK A01 T04030125  RH  019%=      5-min Rain = 0
KPD2 141920Z 11004KT 40/13 A2992 RMK A01 T04030125  RH  019%=      5-min Rain = 0
KPD2 141921Z 12004KT 40/12 A2992 RMK A01 T04030123  RH  019%=      5-min Rain = 0
KPD2 141922Z 13005KT 40/12 A2992 RMK A01 T04020124  RH  019%=      5-min Rain = 0
KPD2 141923Z 11002KT 40/13 A2992 RMK A01 T04030125  RH  019%=      5-min Rain = 0
KPD2 141924Z 10001KT 40/12 A2992 RMK A01 T04030123  RH  019%=      5-min Rain = 0
KPD2 141925Z 10002KT 40/13 A2992 RMK A01 T04030125  RH  019%=      5-min Rain = 0
KPD2 141926Z 12004KT 40/13 A2992 RMK A01 T04040125  RH  019%=      5-min Rain = 0
KPD2 141927Z 12004KT 40/12 A2991 RMK A01 T04030123  RH  019%=      5-min Rain = 0
KPD2 141928Z 11005KT 40/12 A2991 RMK A01 T04020124  RH  019%=      5-min Rain = 0
KPD2 141929Z 13005KT 40/12 A2991 RMK A01 T04010124  RH  019%=      5-min Rain = 0
KPD2 141930Z 12004KT 40/12 A2991 RMK A01 T04010123  RH  019%=      5-min Rain = 0
KPD2 141931Z 11006KT 40/13 A2991 RMK A01 T04010126  RH  020%=      5-min Rain = 0
KPD2 141932Z 10006KT 40/13 A2991 RMK A01 T04010127  RH  020%=      5-min Rain = 0
KPD2 141933Z 12007KT 40/13 A2991 RMK A01 T04010128  RH  020%=      5-min Rain = 0
KPD2 141934Z 12007KT 40/13 A2991 RMK A01 T04010128  RH  020%=      5-min Rain = 0
KPD2 141935Z 11006KT 40/13 A2991 RMK A01 T04010126  RH  020%=      5-min Rain = 0
KPD2 141936Z 10006KT 40/13 A2991 RMK A01 T04000127  RH  020%=      5-min Rain = 0
KPD2 141937Z 11006KT 40/13 A2991 RMK A01 T04000125  RH  020%=      5-min Rain = 0
KPD2 141938Z 11006KT 40/13 A2991 RMK A01 T03990126  RH  020%=      5-min Rain = 0
KPD2 141939Z 12004KT 40/13 A2991 RMK A01 T03990128  RH  020%=      5-min Rain = 0
KPD2 141940Z 12004KT 40/13 A299 RMK A01 T03990128  RH  020%=      5-min Rain = 0
KPD2 141941Z 13006KT 40/13 A299 RMK A01 T04000126  RH  020%=      5-min Rain = 0
KPD2 141942Z 12007KT 40/13 A299 RMK A01 T03990127  RH  020%=      5-min Rain = 0
KPD2 141943Z 13007KT 40/13 A299 RMK A01 T04000127  RH  020%=      5-min Rain = 0
KPD2 141944Z 13008KT 40/13 A299 RMK A01 T04000125  RH  020%=      5-min Rain = 0
KPD2 141945Z 13005KT 40/12 A299 RMK A01 T04010121  RH  019%=      5-min Rain = 0
KPD2 141946Z 15002KT 40/12 A299 RMK A01 T04010124  RH  019%=      5-min Rain = 0
KPD2 141947Z 13003KT 41/13 A299 RMK A01 T04050128  RH  019%=      5-min Rain = 0
KPD2 141948Z 13004KT 41/13 A299 RMK A01 T04090128  RH  019%=      5-min Rain = 0
KPD2 141949Z 12006KT 41/13 A299 RMK A01 T04120130  RH  019%=      5-min Rain = 0
KPD2 141950Z 12007KT 42/13 A299 RMK A01 T04170131  RH  019%=      5-min Rain = 0
KPD2 141951Z 13006KT 42/13 A299 RMK A01 T04220130  RH  018%=      5-min Rain = 0
KPD2 141952Z 14008KT 43/13 A299 RMK A01 T04250128  RH  017%=      5-min Rain = 0
KPD2 141953Z 14009KT 42/13 A299 RMK A01 T04230126  RH  017%=      5-min Rain = 0
KPD2 141954Z 13007KT 42/13 A299 RMK A01 T04190127  RH  018%=      5-min Rain = 0
KPD2 141955Z 14006KT 42/13 A299 RMK A01 T04190126  RH  018%=      5-min Rain = 0
KPD2 141956Z 14008KT 42/13 A299 RMK A01 T04200127  RH  018%=      5-min Rain = 0
KPD2 141957Z 12007KT 42/13 A299 RMK A01 T04210128  RH  018%=      5-min Rain = 0
KPD2 141958Z 15004KT 43/13 A299 RMK A01 T04250126  RH  017%=      5-min Rain = 0
KPD2 141959Z 14008KT 42/12 A299 RMK A01 T04240124  RH  017%=      5-min Rain = 0
KPD2 142000Z 14007KT 42/13 A299 RMK A01 T04230125  RH  017%=      5-min Rain = 0
KPD2 142001Z 14005KT 42/12 A299 RMK A01 T04220122  RH  017%=      5-min Rain = 0
KPD2 142002Z 13006KT 42/12 A299 RMK A01 T04230123  RH  017%=      5-min Rain = 0
KPD2 142003Z 13008G14KT 42/12 A299 RMK A01 T04230122  RH  017%=      5-min Rain = 0
KPD2 142004Z 13011KT 42/13 A299 RMK A01 T04240125  RH  017%=      5-min Rain = 0
KPD2 142005Z 16013KT 43/12 A2991 RMK A01 T04260124  RH  017%=      5-min Rain = 0
KPD2 142006Z 16016G21KT 42/12 A2991 RMK A01 T04220123  RH  017%=      5-min Rain = 0
KPD2 142007Z 16017G23KT 41/12 A2991 RMK A01 T04100122  RH  018%=      5-min Rain = 0
KPD2 142008Z 16015G20KT 40/12 A2991 RMK A01 T03980123  RH  020%=      5-min Rain = 0
KPD2 142009Z 16017G22KT 39/12 A2991 RMK A01 T03930124  RH  020%=      5-min Rain = 0
KPD2 142010Z 15016G21KT 39/13 A2991 RMK A01 T03870125  RH  021%=      5-min Rain = 0
KPD2 142011Z 15018KT 38/12 A2991 RMK A01 T03820124  RH  022%=      5-min Rain = 0
KPD2 142012Z 14016G22KT 38/12 A2991 RMK A01 T03760122  RH  022%=      5-min Rain = 0
KPD2 142013Z 15018G25KT 37/12 A2991 RMK A01 T03740123  RH  022%=      5-min Rain = 0
KPD2 142014Z 14016KT 37/12 A2991 RMK A01 T03720121  RH  022%=      5-min Rain = 0
KPD2 142015Z 15018G23KT 37/12 A2991 RMK A01 T03700123  RH  023%=      5-min Rain = 0
KPD2 142016Z 15011G18KT 37/12 A2991 RMK A01 T03680123  RH  023%=      5-min Rain = 0
KPD2 142017Z 17014G20KT 37/12 A2991 RMK A01 T03680124  RH  023%=      5-min Rain = 0
KPD2 142018Z 16016KT 37/12 A2991 RMK A01 T03670124  RH  023%=      5-min Rain = 0
KPD2 142019Z 16017G28KT 37/13 A2991 RMK A01 T03660126  RH  024%=      5-min Rain = 0
KPD2 142020Z 17019G25KT 37/13 A2991 RMK A01 T03650130  RH  024%=      5-min Rain = 0
KPD2 142021Z 16017G26KT 36/13 A2991 RMK A01 T03630133  RH  025%=      5-min Rain = 0
KPD2 142022Z 16015KT 36/13 A2991 RMK A01 T03610134  RH  026%=      5-min Rain = 0
KPD2 142023Z 17015G21KT 36/14 A2991 RMK A01 T03600136  RH  026%=      5-min Rain = 0
KPD2 142024Z 14017G25KT 36/14 A2991 RMK A01 T03590137  RH  026%=      5-min Rain = 0
KPD2 142025Z 14017KT 36/14 A2991 RMK A01 T03580137  RH  027%=      5-min Rain = 0
KPD2 142026Z 15015KT 36/14 A2991 RMK A01 T03560137  RH  027%=      5-min Rain = 0
KPD2 142027Z 14017G22KT 35/13 A2991 RMK A01 T03540134  RH  027%=      5-min Rain = 0
KPD2 142028Z 15016G23KT 35/13 A2991 RMK A01 T03520132  RH  027%=      5-min Rain = 0
KPD2 142029Z 15013G19KT 35/13 A2991 RMK A01 T03510131  RH  026%=      5-min Rain = 0
KPD2 142030Z 15011KT 35/13 A2991 RMK A01 T03510129  RH  026%=      5-min Rain = 0
KPD2 142031Z 14012KT 35/13 A2991 RMK A01 T03510128  RH  026%=      5-min Rain = 0
KPD2 142032Z 15016KT 35/12 A2991 RMK A01 T03510124  RH  026%=      5-min Rain = 0
KPD2 142033Z 14014G20KT 35/12 A2991 RMK A01 T03510121  RH  025%=      5-min Rain = 0
KPD2 142034Z 13015KT 35/12 A2991 RMK A01 T03520123  RH  025%=      5-min Rain = 0
KPD2 142035Z 14016KT 35/12 A2991 RMK A01 T03510122  RH  025%=      5-min Rain = 0
KPD2 142036Z 14015KT 35/12 A2991 RMK A01 T03500122  RH  025%=      5-min Rain = 0
KPD2 142037Z 14013KT 35/12 A2991 RMK A01 T03480122  RH  026%=      5-min Rain = 0
KPD2 142038Z 13012KT 35/12 A2991 RMK A01 T03470124  RH  026%=      5-min Rain = 0
KPD2 142039Z 12014KT 35/13 A2991 RMK A01 T03470126  RH  026%=      5-min Rain = 0
KPD2 142040Z 12012KT 35/13 A2991 RMK A01 T03470128  RH  027%=      5-min Rain = 0
KPD2 142041Z 13014G19KT 35/13 A2992 RMK A01 T03480130  RH  027%=      5-min Rain = 0
KPD2 142042Z 13018G25KT 35/13 A2992 RMK A01 T03460130  RH  027%=      5-min Rain = 0
KPD2 142043Z 13017KT 34/13 A2992 RMK A01 T03420130  RH  028%=      5-min Rain = 0
KPD2 142044Z 14014G19KT 34/13 A2992 RMK A01 T03400131  RH  028%=      5-min Rain = 0
KPD2 142045Z 13013G18KT 34/13 A2992 RMK A01 T03390133  RH  029%=      5-min Rain = 0
KPD2 142046Z 12013G21KT 34/13 A2992 RMK A01 T03390131  RH  029%=      5-min Rain = 0
KPD2 142047Z 13016G23KT 34/13 A2992 RMK A01 T03390130  RH  028%=      5-min Rain = 0
KPD2 142048Z 13015KT 34/14 A2992 RMK A01 T03380135  RH  029%=      5-min Rain = 0
KPD2 142049Z 13012G19KT 34/14 A2991 RMK A01 T03370139  RH  030%=      5-min Rain = 0
KPD2 142050Z 13016KT 34/14 A2991 RMK A01 T03370138  RH  030%=      5-min Rain = 0
KPD2 142051Z 13016G21KT 34/14 A2991 RMK A01 T03380139  RH  030%=      5-min Rain = 0
KPD2 142052Z 13013KT 34/14 A2991 RMK A01 T03380138  RH  030%=      5-min Rain = 0
KPD2 142053Z 14013KT 34/14 A2991 RMK A01 T03380138  RH  030%=      5-min Rain = 0
KPD2 142054Z 14016G23KT 34/14 A2991 RMK A01 T03370138  RH  030%=      5-min Rain = 0
KPD2 142055Z 14017KT 34/13 A2991 RMK A01 T03350134  RH  030%=      5-min Rain = 0
KPD2 142056Z 14012KT 33/14 A2991 RMK A01 T03330135  RH  030%=      5-min Rain = 0
KPD2 142057Z 13012G17KT 33/14 A2991 RMK A01 T03320137  RH  031%=      5-min Rain = 0
KPD2 142058Z 13012KT 33/14 A2991 RMK A01 T03310138  RH  031%=      5-min Rain = 0
KPD2 142059Z 14013KT 33/14 A2991 RMK A01 T03320139  RH  031%=      5-min Rain = 0
KPD2 142100Z 13014G19KT 33/14 A2991 RMK A01 T03320137  RH  031%=      5-min Rain = 0
KPD2 142101Z 13014G20KT 33/14 A2991 RMK A01 T03300137  RH  031%=      5-min Rain = 0
KPD2 142102Z 13013G18KT 33/14 A2991 RMK A01 T03300140  RH  032%=      5-min Rain = 0
KPD2 142103Z 13010KT 33/14 A2991 RMK A01 T03300142  RH  032%=      5-min Rain = 0
KPD2 142104Z 14009KT 33/14 A2991 RMK A01 T03310143  RH  032%=      5-min Rain = 0
KPD2 142105Z 13010KT 33/14 A2991 RMK A01 T03310144  RH  032%=      5-min Rain = 0
KPD2 142106Z 13013KT 33/15 A2991 RMK A01 T03330145  RH  032%=      5-min Rain = 0
KPD2 142107Z 14011KT 33/14 A2991 RMK A01 T03330144  RH  032%=      5-min Rain = 0
KPD2 142108Z 13010KT 33/15 A2991 RMK A01 T03330145  RH  032%=      5-min Rain = 0
KPD2 142109Z 14009KT 33/15 A2992 RMK A01 T03330146  RH  032%=      5-min Rain = 0
KPD2 142110Z 13006KT 34/15 A2992 RMK A01 T03350146  RH  032%=      5-min Rain = 0
KPD2 142111Z 11006KT 34/15 A2992 RMK A01 T03370148  RH  032%=      5-min Rain = 0
KPD2 142112Z 12007KT 34/15 A2992 RMK A01 T03420149  RH  031%=      5-min Rain = 0
KPD2 142113Z 11007KT 35/15 A2992 RMK A01 T03460146  RH  030%=      5-min Rain = 0
KPD2 142114Z 11008KT 35/15 A2992 RMK A01 T03490145  RH  030%=      5-min Rain = 0
KPD2 142115Z 11012G20KT 35/14 A2992 RMK A01 T03500142  RH  029%=      5-min Rain = 0
KPD2 142116Z 11010KT 35/15 A2992 RMK A01 T03460146  RH  030%=      5-min Rain = 0
KPD2 142117Z 10007KT 34/15 A2992 RMK A01 T03430148  RH  031%=      5-min Rain = 0
KPD2 142118Z 10010KT 34/15 A2992 RMK A01 T03410148  RH  031%=      5-min Rain = 0
KPD2 142119Z 10010G15KT 34/15 A2993 RMK A01 T03390148  RH  032%=      5-min Rain = 0
KPD2 142120Z 10013G19KT 34/15 A2993 RMK A01 T03390147  RH  032%=      5-min Rain = 0
KPD2 142121Z 09012G17KT 34/15 A2993 RMK A01 T03380145  RH  031%=      5-min Rain = 0
KPD2 142122Z 10017G23KT 34/14 A2992 RMK A01 T03370139  RH  030%=      5-min Rain = 0
KPD2 142123Z 10013G19KT 34/13 A2992 RMK A01 T03370134  RH  029%=      5-min Rain = 0
KPD2 142124Z 10009KT 34/13 A2992 RMK A01 T03390129  RH  028%=      5-min Rain = 0
KPD2 142125Z 10015G21KT 34/13 A2992 RMK A01 T03410130  RH  028%=      5-min Rain = 0
KPD2 142126Z 10014G19KT 34/13 A2992 RMK A01 T03430125  RH  027%=      5-min Rain = 0
KPD2 142127Z 11015KT 34/13 A2992 RMK A01 T03440130  RH  028%=      5-min Rain = 0
KPD2 142128Z 09008G16KT 34/15 A2992 RMK A01 T03430145  RH  030%=      5-min Rain = 0
KPD2 142129Z 09005KT 34/15 A2993 RMK A01 T03400146  RH  031%=      5-min Rain = 0
KPD2 142130Z 08009G14KT 34/15 A2993 RMK A01 T03390152  RH  033%=      5-min Rain = 0
KPD2 142131Z 08006G11KT 34/16 A2993 RMK A01 T03370155  RH  034%=      5-min Rain = 0
KPD2 142132Z 10009G16KT 34/16 A2993 RMK A01 T03350156  RH  034%=      5-min Rain = 0
KPD2 142133Z 10015KT 33/16 A2993 RMK A01 T03330156  RH  035%=      5-min Rain = 0
KPD2 142134Z 10009KT 33/16 A2993 RMK A01 T03330156  RH  035%=      5-min Rain = 0
KPD2 142135Z 09011KT 33/16 A2993 RMK A01 T03320156  RH  035%=      5-min Rain = 0
KPD2 142136Z 10010G18KT 33/16 A2993 RMK A01 T03320156  RH  035%=      5-min Rain = 0
KPD2 142137Z 12010G17KT 33/16 A2993 RMK A01 T03310156  RH  035%=      5-min Rain = 0
KPD2 142138Z 11005G11KT 33/16 A2993 RMK A01 T03320157  RH  035%=      5-min Rain = 0
KPD2 142139Z 11009G14KT 33/16 A2993 RMK A01 T03330157  RH  035%=      5-min Rain = 0
KPD2 142140Z 11008G14KT 33/16 A2994 RMK A01 T03330156  RH  035%=      5-min Rain = 0
KPD2 142141Z 11010G17KT 33/16 A2994 RMK A01 T03330157  RH  035%=      5-min Rain = 0
KPD2 142142Z 09011KT 33/16 A2994 RMK A01 T03330157  RH  035%=      5-min Rain = 0
KPD2 142143Z 09013G19KT 33/16 A2994 RMK A01 T03330157  RH  035%=      5-min Rain = 0
KPD2 142144Z 08011KT 33/16 A2994 RMK A01 T03330157  RH  035%=      5-min Rain = 0
KPD2 142145Z 09012KT 33/16 A2994 RMK A01 T03330157  RH  035%=      5-min Rain = 0
KPD2 142146Z 10013G18KT 33/16 A2994 RMK A01 T03330157  RH  035%=      5-min Rain = 0
KPD2 142147Z 10011KT 33/16 A2994 RMK A01 T03330155  RH  034%=      5-min Rain = 0
KPD2 142148Z 11013G19KT 33/16 A2994 RMK A01 T03330155  RH  034%=      5-min Rain = 0
KPD2 142149Z 10011KT 33/16 A2994 RMK A01 T03320157  RH  035%=      5-min Rain = 0
KPD2 142150Z 10013KT 33/16 A2994 RMK A01 T03320158  RH  035%=      5-min Rain = 0
KPD2 142151Z 11011KT 33/16 A2994 RMK A01 T03310159  RH  036%=      5-min Rain = 0
KPD2 142152Z 12011G16KT 33/16 A2994 RMK A01 T03310160  RH  036%=      5-min Rain = 0
KPD2 142153Z 11012KT 33/16 A2994 RMK A01 T03310159  RH  036%=      5-min Rain = 0
KPD2 142154Z 12012G19KT 33/16 A2994 RMK A01 T03310159  RH  036%=      5-min Rain = 0
KPD2 142155Z 12013G18KT 33/16 A2993 RMK A01 T03320159  RH  035%=      5-min Rain = 0
KPD2 142156Z 12011KT 33/16 A2993 RMK A01 T03330160  RH  036%=      5-min Rain = 0
KPD2 142157Z 12009G14KT 33/16 A2993 RMK A01 T03330161  RH  036%=      5-min Rain = 0
KPD2 142158Z 11012KT 33/16 A2993 RMK A01 T03330161  RH  036%=      5-min Rain = 0
KPD2 142159Z 13009KT 33/16 A2993 RMK A01 T03330161  RH  036%=      5-min Rain = 0
KPD2 142200Z 12009G14KT 33/16 A2993 RMK A01 T03330161  RH  036%=      5-min Rain = 0
KPD2 142201Z 12012KT 33/16 A2993 RMK A01 T03330158  RH  035%=      5-min Rain = 0
KPD2 142202Z 13012KT 33/16 A2993 RMK A01 T03330158  RH  035%=      5-min Rain = 0
KPD2 142203Z 12012KT 33/15 A2993 RMK A01 T03330151  RH  034%=      5-min Rain = 0
KPD2 142204Z 11012KT 33/14 A2993 RMK A01 T03340144  RH  032%=      5-min Rain = 0
KPD2 142205Z 10008G14KT 34/14 A2993 RMK A01 T03350141  RH  031%=      5-min Rain = 0
KPD2 142206Z 11012G17KT 34/14 A2993 RMK A01 T03350135  RH  030%=      5-min Rain = 0
KPD2 142207Z 09012G20KT 34/13 A2993 RMK A01 T03360128  RH  028%=      5-min Rain = 0
KPD2 142208Z 10010G15KT 34/13 A2993 RMK A01 T03360132  RH  029%=      5-min Rain = 0
KPD2 142209Z 10009G15KT 34/14 A2993 RMK A01 T03360137  RH  030%=      5-min Rain = 0
KPD2 142210Z 10011G17KT 34/14 A2993 RMK A01 T03350135  RH  030%=      5-min Rain = 0
KPD2 142211Z 11008KT 33/13 A2993 RMK A01 T03330134  RH  030%=      5-min Rain = 0
KPD2 142212Z 11005KT 33/13 A2993 RMK A01 T03310133  RH  030%=      5-min Rain = 0
KPD2 142213Z 10009G15KT 33/13 A2993 RMK A01 T03300132  RH  030%=      5-min Rain = 0
KPD2 142214Z 10011G19KT 33/14 A2993 RMK A01 T03280139  RH  032%=      5-min Rain = 0
KPD2 142215Z 11010G17KT 33/14 A2992 RMK A01 T03260136  RH  032%=      5-min Rain = 0
KPD2 142216Z 10012G18KT 32/14 A2992 RMK A01 T03240139  RH  033%=      5-min Rain = 0
KPD2 142217Z 10009KT 32/14 A2992 RMK A01 T03230140  RH  033%=      5-min Rain = 0
KPD2 142218Z 11010KT 32/15 A2992 RMK A01 T03210146  RH  035%=      5-min Rain = 0
KPD2 142219Z 12007KT 32/15 A2992 RMK A01 T03180154  RH  037%=      5-min Rain = 0
KPD2 142220Z 12010G16KT 31/16 A2992 RMK A01 T03140162  RH  040%=      5-min Rain = 0
KPD2 142221Z 12013G19KT 31/17 A2992 RMK A01 T03090166  RH  042%=      5-min Rain = 0
KPD2 142222Z 12010G17KT 31/17 A2992 RMK A01 T03050169  RH  044%=      5-min Rain = 0
KPD2 142223Z 12008KT 30/17 A2992 RMK A01 T03020166  RH  044%=      5-min Rain = 0
KPD2 142224Z 12008KT 30/16 A2992 RMK A01 T03010164  RH  044%=      5-min Rain = 0
KPD2 142225Z 11006KT 30/16 A2993 RMK A01 T03010159  RH  042%=      5-min Rain = 0
KPD2 142226Z 11006KT 30/16 A2993 RMK A01 T03020162  RH  043%=      5-min Rain = 0
KPD2 142227Z 11005G10KT 30/16 A2993 RMK A01 T03040160  RH  042%=      5-min Rain = 0
KPD2 142228Z 11005KT 30/16 A2993 RMK A01 T03040161  RH  042%=      5-min Rain = 0
KPD2 142229Z 03001KT 31/16 A2993 RMK A01 T03050157  RH  041%=      5-min Rain = 0.01
KPD2 142230Z 11002G7KT 31/16 A2993 RMK A01 T03050160  RH  041%=      5-min Rain = 0
KPD2 142231Z 10010KT 30/17 A2993 RMK A01 T03030171  RH  045%=      5-min Rain = 0.01
KPD2 142232Z 10006KT 29/17 A2992 RMK A01 T02940168  RH  046%=      5-min Rain = 0.01
KPD2 142233Z 11007KT 29/18 A2992 RMK A01 T02880181  RH  053%=      5-min Rain = 0.01
KPD2 142234Z 11007KT 28/19 A2993 RMK A01 T02790191  RH  059%=      5-min Rain = 0.02
KPD2 142235Z 14008KT 27/19 A2992 RMK A01 T02710191  RH  062%=      5-min Rain = 0
KPD2 142236Z 14009KT 26/19 A2992 RMK A01 T02640185  RH  062%=      5-min Rain = 0.02
KPD2 142237Z 14009KT 26/19 A2992 RMK A01 T02590192  RH  067%=      5-min Rain = 0.01
KPD2 142238Z 12010KT 25/19 A2992 RMK A01 T02530193  RH  070%=      5-min Rain = 0
KPD2 142239Z 11005KT 25/20 A2992 RMK A01 T02480195  RH  072%=      5-min Rain = 0
KPD2 142240Z 09005KT 25/19 A2992 RMK A01 T02460194  RH  073%=      5-min Rain = 0
KPD2 142241Z 10005KT 25/19 A2992 RMK A01 T02450186  RH  070%=      5-min Rain = 0
KPD2 142242Z 04005KT 25/18 A2992 RMK A01 T02450177  RH  066%=      5-min Rain = 0
KPD2 142243Z 04003KT 25/19 A2992 RMK A01 T02470185  RH  068%=      5-min Rain = 0.01
KPD2 142244Z 11006KT 25/18 A2993 RMK A01 T02480180  RH  066%=      5-min Rain = 0
KPD2 142245Z 07005KT 25/18 A2993 RMK A01 T02500175  RH  063%=      5-min Rain = 0
KPD2 142246Z 11006G11KT 26/17 A2992 RMK A01 T02550166  RH  058%=      5-min Rain = 0
KPD2 142247Z 10005KT 26/17 A2992 RMK A01 T02590165  RH  056%=      5-min Rain = 0
KPD2 142248Z 13004KT 26/17 A2992 RMK A01 T02630172  RH  057%=      5-min Rain = 0
KPD2 142249Z 16006KT 26/19 A2992 RMK A01 T02630191  RH  064%=      5-min Rain = 0
KPD2 142250Z 12007KT 26/19 A2992 RMK A01 T02590191  RH  066%=      5-min Rain = 0
KPD2 142251Z 12007KT 26/19 A2993 RMK A01 T02550187  RH  066%=      5-min Rain = 0
KPD2 142252Z 12008KT 25/19 A2993 RMK A01 T02530186  RH  066%=      5-min Rain = 0
KPD2 142253Z 11007KT 25/18 A2993 RMK A01 T02520184  RH  066%=      5-min Rain = 0
KPD2 142254Z 13005KT 25/18 A2993 RMK A01 T02520181  RH  065%=      5-min Rain = 0
KPD2 142255Z 13006KT 25/18 A2994 RMK A01 T02530181  RH  065%=      5-min Rain = 0
KPD2 142256Z 13006KT 25/18 A2994 RMK A01 T02530183  RH  065%=      5-min Rain = 0
KPD2 142257Z 12007KT 25/19 A2994 RMK A01 T02540186  RH  066%=      5-min Rain = 0
KPD2 142258Z 13006KT 25/19 A2994 RMK A01 T02530187  RH  067%=      5-min Rain = 0
KPD2 142259Z 15004KT 25/19 A2994 RMK A01 T02520187  RH  067%=      5-min Rain = 0
KPD2 142300Z 16004KT 25/18 A2994 RMK A01 T02510183  RH  066%=      5-min Rain = 0
KPD2 142301Z 15005KT 25/18 A2994 RMK A01 T02510183  RH  066%=      5-min Rain = 0
KPD2 142302Z 16005KT 25/18 A2994 RMK A01 T02500184  RH  066%=      5-min Rain = 0
KPD2 142303Z 15007KT 25/19 A2994 RMK A01 T02500185  RH  067%=      5-min Rain = 0
KPD2 142304Z 15008KT 25/18 A2994 RMK A01 T02490184  RH  067%=      5-min Rain = 0
KPD2 142305Z 15011KT 25/18 A2994 RMK A01 T02490179  RH  065%=      5-min Rain = 0
KPD2 142306Z 14012KT 25/17 A2994 RMK A01 T02510174  RH  062%=      5-min Rain = 0
KPD2 142307Z 13009KT 25/17 A2994 RMK A01 T02540172  RH  060%=      5-min Rain = 0
KPD2 142308Z 13007KT 26/18 A2994 RMK A01 T02550178  RH  062%=      5-min Rain = 0
KPD2 142309Z 12005KT 26/18 A2994 RMK A01 T02550184  RH  065%=      5-min Rain = 0
KPD2 142310Z 13007KT 26/19 A2995 RMK A01 T02550187  RH  066%=      5-min Rain = 0
KPD2 142311Z 12007KT 25/18 A2995 RMK A01 T02540178  RH  063%=      5-min Rain = 0
KPD2 142312Z 12007KT 25/18 A2994 RMK A01 T02540177  RH  063%=      5-min Rain = 0
KPD2 142313Z 13007KT 25/18 A2995 RMK A01 T02540177  RH  062%=      5-min Rain = 0
KPD2 142314Z 14007KT 26/18 A2995 RMK A01 T02560176  RH  061%=      5-min Rain = 0
KPD2 142315Z 14007KT 26/18 A2995 RMK A01 T02570176  RH  061%=      5-min Rain = 0
KPD2 142316Z 12005KT 26/18 A2994 RMK A01 T02580180  RH  062%=      5-min Rain = 0
KPD2 142317Z 12005KT 26/18 A2994 RMK A01 T02580184  RH  064%=      5-min Rain = 0
KPD2 142318Z 12005KT 26/19 A2994 RMK A01 T02580188  RH  065%=      5-min Rain = 0
KPD2 142319Z 12004KT 26/19 A2994 RMK A01 T02580193  RH  067%=      5-min Rain = 0
KPD2 142320Z 10004KT 26/19 A2994 RMK A01 T02580192  RH  067%=      5-min Rain = 0
KPD2 142321Z 09005KT 26/19 A2994 RMK A01 T02570185  RH  064%=      5-min Rain = 0
KPD2 142322Z 07004KT 26/18 A2994 RMK A01 T02570178  RH  062%=      5-min Rain = 0
KPD2 142323Z 07004KT 26/17 A2994 RMK A01 T02570168  RH  058%=      5-min Rain = 0
KPD2 142324Z 08004KT 26/17 A2994 RMK A01 T02590168  RH  057%=      5-min Rain = 0
KPD2 142325Z 09004KT 26/17 A2994 RMK A01 T02610167  RH  056%=      5-min Rain = 0
KPD2 142326Z 06004KT 26/17 A2993 RMK A01 T02620166  RH  055%=      5-min Rain = 0
KPD2 142327Z 08003KT 26/17 A2993 RMK A01 T02630167  RH  056%=      5-min Rain = 0
KPD2 142328Z 11004KT 27/16 A2993 RMK A01 T02650163  RH  054%=      5-min Rain = 0
KPD2 142329Z 10005KT 27/16 A2993 RMK A01 T02660158  RH  051%=      5-min Rain = 0
KPD2 142330Z 12004KT 27/16 A2993 RMK A01 T02690155  RH  050%=      5-min Rain = 0
KPD2 142331Z 11004KT 27/16 A2993 RMK A01 T02720161  RH  051%=      5-min Rain = 0
KPD2 142332Z 10003KT 27/17 A2993 RMK A01 T02740169  RH  053%=      5-min Rain = 0
KPD2 142333Z 10005KT 28/17 A2992 RMK A01 T02750170  RH  053%=      5-min Rain = 0
KPD2 142334Z 11004KT 28/16 A2992 RMK A01 T02760162  RH  050%=      5-min Rain = 0
KPD2 142335Z 12004KT 28/17 A2992 RMK A01 T02770169  RH  052%=      5-min Rain = 0
KPD2 142336Z 14006KT 28/17 A2992 RMK A01 T02790166  RH  050%=      5-min Rain = 0
KPD2 142337Z 14006KT 28/17 A2992 RMK A01 T02800167  RH  050%=      5-min Rain = 0
KPD2 142338Z 13006KT 28/17 A2992 RMK A01 T02810166  RH  050%=      5-min Rain = 0
KPD2 142339Z 12005KT 28/18 A2992 RMK A01 T02810175  RH  053%=      5-min Rain = 0
KPD2 142340Z 10004KT 28/17 A2992 RMK A01 T02810173  RH  052%=      5-min Rain = 0
KPD2 142341Z 09004KT 28/16 A2992 RMK A01 T02820161  RH  048%=      5-min Rain = 0
KPD2 142342Z 10005KT 28/16 A2992 RMK A01 T02830161  RH  048%=      5-min Rain = 0
KPD2 142343Z 12004KT 28/16 A2992 RMK A01 T02840162  RH  048%=      5-min Rain = 0
KPD2 142344Z 11003KT 29/17 A2992 RMK A01 T02850167  RH  049%=      5-min Rain = 0
KPD2 142345Z 13003KT 29/17 A2992 RMK A01 T02850166  RH  049%=      5-min Rain = 0
KPD2 142346Z 13005KT 29/16 A2992 RMK A01 T02850164  RH  048%=      5-min Rain = 0
KPD2 142347Z 15004KT 29/17 A2992 RMK A01 T02850165  RH  048%=      5-min Rain = 0
KPD2 142348Z 16003KT 29/17 A2992 RMK A01 T02850169  RH  049%=      5-min Rain = 0
KPD2 142349Z 16003KT 28/17 A2992 RMK A01 T02840173  RH  051%=      5-min Rain = 0
KPD2 142350Z 14003KT 28/18 A2992 RMK A01 T02840175  RH  052%=      5-min Rain = 0
KPD2 142351Z 11003KT 28/18 A2992 RMK A01 T02830175  RH  052%=      5-min Rain = 0
KPD2 142352Z 09003KT 28/18 A2992 RMK A01 T02810175  RH  052%=      5-min Rain = 0
KPD2 142353Z 07004KT 28/16 A2992 RMK A01 T02800161  RH  048%=      5-min Rain = 0
KPD2 142354Z 06006KT 28/16 A2992 RMK A01 T02800156  RH  047%=      5-min Rain = 0
KPD2 142355Z 05005KT 28/15 A2992 RMK A01 T02790151  RH  046%=      5-min Rain = 0
KPD2 142356Z 01005KT 28/15 A2992 RMK A01 T02800150  RH  045%=      5-min Rain = 0
KPD2 142357Z 01005KT 28/16 A2992 RMK A01 T02810158  RH  047%=      5-min Rain = 0
KPD2 142358Z 36004KT 28/16 A2993 RMK A01 T02810156  RH  047%=      5-min Rain = 0
KPD2 142359Z 35004KT 28/16 A2993 RMK A01 T02810159  RH  048%=      5-min Rain = 0
KPD2 150000Z 33004KT 28/16 A2993 RMK A01 T02810160  RH  048%=      5-min Rain = 0
KPD2 150001Z 33004KT 28/16 A2994 RMK A01 T02800164  RH  049%=      5-min Rain = 0
KPD2 150002Z 31005KT 28/16 A2994 RMK A01 T02800161  RH  048%=      5-min Rain = 0
KPD2 150003Z 30006KT 28/16 A2994 RMK A01 T02800161  RH  049%=      5-min Rain = 0
KPD2 150004Z 31006KT 28/16 A2994 RMK A01 T02790163  RH  049%=      5-min Rain = 0
KPD2 150005Z 30006KT 28/17 A2994 RMK A01 T02780167  RH  051%=      5-min Rain = 0
KPD2 150006Z 30004KT 28/17 A2994 RMK A01 T02770168  RH  052%=      5-min Rain = 0
KPD2 150007Z 30002KT 28/17 A2994 RMK A01 T02760170  RH  052%=      5-min Rain = 0
KPD2 150008Z 31000KT 27/17 A2994 RMK A01 T02740174  RH  054%=      5-min Rain = 0
KPD2 150009Z 00000KT 27/18 A2994 RMK A01 T02730176  RH  055%=      5-min Rain = 0
KPD2 150010Z 04000KT 27/19 A2994 RMK A01 T02720185  RH  059%=      5-min Rain = 0.01
KPD2 150011Z 14003KT 27/19 A2994 RMK A01 T02690192  RH  063%=      5-min Rain = 0.01
KPD2 150012Z 16005KT 26/20 A2994 RMK A01 T02640197  RH  067%=      5-min Rain = 0.01
KPD2 150013Z 17006KT 26/19 A2994 RMK A01 T02570194  RH  068%=      5-min Rain = 0.01
KPD2 150014Z 16006KT 25/19 A2993 RMK A01 T02520194  RH  070%=      5-min Rain = 0
KPD2 150015Z 17007KT 25/20 A2993 RMK A01 T02480200  RH  075%=      5-min Rain = 0
KPD2 150016Z 16007KT 25/20 A2993 RMK A01 T02450203  RH  077%=      5-min Rain = 0
KPD2 150017Z 16008KT 24/20 A2993 RMK A01 T02410197  RH  076%=      5-min Rain = 0
KPD2 150018Z 15008KT 24/20 A2993 RMK A01 T02390195  RH  076%=      5-min Rain = 0.01
KPD2 150019Z 13007KT 24/20 A2993 RMK A01 T02380198  RH  078%=      5-min Rain = 0
KPD2 150020Z 12006KT 24/20 A2993 RMK A01 T02380201  RH  080%=      5-min Rain = 0
KPD2 150021Z 10007KT 24/20 A2993 RMK A01 T02370201  RH  081%=      5-min Rain = 0
KPD2 150022Z 10008KT 24/19 A2993 RMK A01 T02360187  RH  074%=      5-min Rain = 0
KPD2 150023Z 09008KT 24/17 A2993 RMK A01 T02370170  RH  066%=      5-min Rain = 0
KPD2 150024Z 11006KT 24/18 A2992 RMK A01 T02410180  RH  069%=      5-min Rain = 0
KPD2 150025Z 14006KT 24/19 A2992 RMK A01 T02420191  RH  073%=      5-min Rain = 0
KPD2 150026Z 12008KT 24/20 A2992 RMK A01 T02420195  RH  075%=      5-min Rain = 0
KPD2 150027Z 12009KT 24/19 A2992 RMK A01 T02410190  RH  073%=      5-min Rain = 0
KPD2 150028Z 11009G14KT 24/19 A2992 RMK A01 T02410189  RH  073%=      5-min Rain = 0
KPD2 150029Z 10011KT 24/18 A2992 RMK A01 T02420176  RH  067%=      5-min Rain = 0
KPD2 150030Z 10012KT 25/17 A2991 RMK A01 T02460168  RH  062%=      5-min Rain = 0
KPD2 150031Z 10012KT 25/16 A2991 RMK A01 T02540160  RH  056%=      5-min Rain = 0
KPD2 150032Z 10011KT 26/16 A2991 RMK A01 T02590162  RH  055%=      5-min Rain = 0
KPD2 150033Z 11008G13KT 26/17 A2991 RMK A01 T02610167  RH  056%=      5-min Rain = 0
KPD2 150034Z 12008KT 26/17 A2992 RMK A01 T02620173  RH  058%=      5-min Rain = 0
KPD2 150035Z 12005KT 26/18 A2992 RMK A01 T02620176  RH  059%=      5-min Rain = 0
KPD2 150036Z 12007KT 26/18 A2992 RMK A01 T02620177  RH  059%=      5-min Rain = 0
KPD2 150037Z 13010KT 26/18 A2992 RMK A01 T02610176  RH  059%=      5-min Rain = 0
KPD2 150038Z 13008KT 26/17 A2992 RMK A01 T02610174  RH  059%=      5-min Rain = 0
KPD2 150039Z 12007KT 26/18 A2992 RMK A01 T02590180  RH  061%=      5-min Rain = 0
KPD2 150040Z 13005KT 26/18 A2993 RMK A01 T02580179  RH  062%=      5-min Rain = 0
KPD2 150041Z 13004KT 26/18 A2993 RMK A01 T02570179  RH  062%=      5-min Rain = 0
KPD2 150042Z 14003KT 26/18 A2993 RMK A01 T02560182  RH  063%=      5-min Rain = 0
KPD2 150043Z 12005KT 26/18 A2994 RMK A01 T02550181  RH  063%=      5-min Rain = 0
KPD2 150044Z 11007KT 26/18 A2994 RMK A01 T02550182  RH  064%=      5-min Rain = 0
KPD2 150045Z 09007KT 25/18 A2994 RMK A01 T02540179  RH  063%=      5-min Rain = 0
KPD2 150046Z 08006KT 25/17 A2994 RMK A01 T02540173  RH  061%=      5-min Rain = 0
KPD2 150047Z 09007KT 25/17 A2994 RMK A01 T02540167  RH  058%=      5-min Rain = 0
KPD2 150048Z 08007KT 26/16 A2994 RMK A01 T02580163  RH  056%=      5-min Rain = 0
KPD2 150049Z 11007KT 26/16 A2994 RMK A01 T02600159  RH  054%=      5-min Rain = 0
KPD2 150050Z 10006KT 26/15 A2994 RMK A01 T02640152  RH  050%=      5-min Rain = 0
KPD2 150051Z 10008KT 27/15 A2994 RMK A01 T02680154  RH  050%=      5-min Rain = 0
KPD2 150052Z 10008KT 27/16 A2994 RMK A01 T02700157  RH  050%=      5-min Rain = 0
KPD2 150053Z 10008KT 27/16 A2994 RMK A01 T02710156  RH  050%=      5-min Rain = 0
KPD2 150054Z 10010KT 27/15 A2994 RMK A01 T02720153  RH  048%=      5-min Rain = 0
KPD2 150055Z 09009KT 27/15 A2994 RMK A01 T02730151  RH  047%=      5-min Rain = 0
KPD2 150056Z 10006KT 27/16 A2994 RMK A01 T02740157  RH  049%=      5-min Rain = 0
KPD2 150057Z 10004KT 28/16 A2994 RMK A01 T02750155  RH  048%=      5-min Rain = 0
KPD2 150058Z 11005KT 28/16 A2994 RMK A01 T02750158  RH  049%=      5-min Rain = 0
KPD2 150059Z 11004KT 28/16 A2994 RMK A01 T02760158  RH  049%=      5-min Rain = 0
KPD2 150100Z 13006KT 28/17 A2994 RMK A01 T02760166  RH  051%=      5-min Rain = 0
KPD2 150101Z 13004KT 28/17 A2994 RMK A01 T02760169  RH  052%=      5-min Rain = 0
KPD2 150102Z 16004KT 28/18 A2994 RMK A01 T02750175  RH  055%=      5-min Rain = 0
KPD2 150103Z 16005KT 27/18 A2994 RMK A01 T02710183  RH  058%=      5-min Rain = 0
KPD2 150104Z 14004KT 27/18 A2994 RMK A01 T02650184  RH  061%=      5-min Rain = 0
KPD2 150105Z 12004KT 26/18 A2994 RMK A01 T02620183  RH  062%=      5-min Rain = 0
KPD2 150106Z 10005KT 26/18 A2994 RMK A01 T02600178  RH  061%=      5-min Rain = 0
KPD2 150107Z 10006KT 26/17 A2994 RMK A01 T02590169  RH  057%=      5-min Rain = 0
KPD2 150108Z 10005KT 26/16 A2994 RMK A01 T02600159  RH  054%=      5-min Rain = 0
KPD2 150109Z 11007KT 26/16 A2994 RMK A01 T02640155  RH  051%=      5-min Rain = 0
KPD2 150110Z 08005KT 27/15 A2994 RMK A01 T02700152  RH  048%=      5-min Rain = 0
KPD2 150111Z 10001KT 28/15 A2994 RMK A01 T02750147  RH  045%=      5-min Rain = 0
KPD2 150112Z 10003KT 28/15 A2994 RMK A01 T02790150  RH  045%=      5-min Rain = 0
KPD2 150113Z 12001KT 28/15 A2994 RMK A01 T02810150  RH  045%=      5-min Rain = 0
KPD2 150114Z 14002KT 28/17 A2995 RMK A01 T02830168  RH  050%=      5-min Rain = 0
KPD2 150115Z 16003KT 28/18 A2995 RMK A01 T02800176  RH  053%=      5-min Rain = 0
KPD2 150116Z 15004KT 28/18 A2995 RMK A01 T02760179  RH  056%=      5-min Rain = 0
KPD2 150117Z 11002KT 27/18 A2995 RMK A01 T02730178  RH  056%=      5-min Rain = 0
KPD2 150118Z 10002KT 27/18 A2995 RMK A01 T02700176  RH  056%=      5-min Rain = 0
KPD2 150119Z 10002KT 27/17 A2995 RMK A01 T02680174  RH  056%=      5-min Rain = 0
KPD2 150120Z 10000KT 27/17 A2995 RMK A01 T02670173  RH  056%=      5-min Rain = 0
KPD2 150121Z 00000KT 27/18 A2995 RMK A01 T02660178  RH  059%=      5-min Rain = 0
KPD2 150122Z 22001KT 26/18 A2995 RMK A01 T02640183  RH  061%=      5-min Rain = 0
KPD2 150123Z 23002KT 26/18 A2995 RMK A01 T02620181  RH  061%=      5-min Rain = 0
KPD2 150124Z 22002KT 26/18 A2995 RMK A01 T02600184  RH  063%=      5-min Rain = 0
KPD2 150125Z 22002KT 26/18 A2995 RMK A01 T02570183  RH  063%=      5-min Rain = 0
KPD2 150126Z 21002KT 26/18 A2995 RMK A01 T02560180  RH  063%=      5-min Rain = 0
KPD2 150127Z 21000KT 26/18 A2995 RMK A01 T02550180  RH  063%=      5-min Rain = 0
KPD2 150128Z 21001KT 25/18 A2995 RMK A01 T02540182  RH  064%=      5-min Rain = 0
KPD2 150129Z 20000KT 25/18 A2995 RMK A01 T02540180  RH  064%=      5-min Rain = 0
KPD2 150130Z 12001KT 25/19 A2995 RMK A01 T02540185  RH  066%=      5-min Rain = 0
KPD2 150131Z 12000KT 25/18 A2995 RMK A01 T02540180  RH  064%=      5-min Rain = 0
KPD2 150132Z 00000KT 25/18 A2995 RMK A01 T02530179  RH  063%=      5-min Rain = 0
KPD2 150133Z 00000KT 25/18 A2995 RMK A01 T02530179  RH  064%=      5-min Rain = 0
KPD2 150134Z 14001KT 25/18 A2996 RMK A01 T02530178  RH  063%=      5-min Rain = 0
KPD2 150135Z 16002KT 25/18 A2996 RMK A01 T02530182  RH  064%=      5-min Rain = 0
KPD2 150136Z 15002KT 25/18 A2996 RMK A01 T02530181  RH  064%=      5-min Rain = 0
KPD2 150137Z 15001KT 25/19 A2996 RMK A01 T02540186  RH  066%=      5-min Rain = 0
KPD2 150138Z 07001KT 25/18 A2995 RMK A01 T02540184  RH  065%=      5-min Rain = 0
KPD2 150139Z 06001KT 25/19 A2995 RMK A01 T02530185  RH  066%=      5-min Rain = 0
KPD2 150140Z 06001KT 25/19 A2995 RMK A01 T02520185  RH  066%=      5-min Rain = 0
KPD2 150141Z 04001KT 25/18 A2995 RMK A01 T02510183  RH  066%=      5-min Rain = 0
KPD2 150142Z 01003KT 25/19 A2996 RMK A01 T02510189  RH  068%=      5-min Rain = 0
KPD2 150143Z 01004KT 25/19 A2995 RMK A01 T02510188  RH  068%=      5-min Rain = 0
KPD2 150144Z 02005KT 25/18 A2995 RMK A01 T02500184  RH  067%=      5-min Rain = 0
KPD2 150145Z 02005KT 25/18 A2995 RMK A01 T02500183  RH  066%=      5-min Rain = 0
KPD2 150146Z 02003KT 25/18 A2995 RMK A01 T02490182  RH  066%=      5-min Rain = 0
KPD2 150147Z 02004KT 25/18 A2995 RMK A01 T02500183  RH  067%=      5-min Rain = 0
KPD2 150148Z 00003KT 25/18 A2996 RMK A01 T02500183  RH  066%=      5-min Rain = 0
KPD2 150149Z 36003KT 25/18 A2995 RMK A01 T02500177  RH  064%=      5-min Rain = 0
KPD2 150150Z 35003KT 25/18 A2995 RMK A01 T02510175  RH  063%=      5-min Rain = 0
KPD2 150151Z 35002KT 25/17 A2995 RMK A01 T02510174  RH  062%=      5-min Rain = 0
KPD2 150152Z 35002KT 25/18 A2995 RMK A01 T02510180  RH  065%=      5-min Rain = 0
KPD2 150153Z 35001KT 25/19 A2995 RMK A01 T02510191  RH  069%=      5-min Rain = 0
KPD2 150154Z 35000KT 25/18 A2996 RMK A01 T02510176  RH  063%=      5-min Rain = 0
KPD2 150155Z 00000KT 25/17 A2996 RMK A01 T02510172  RH  062%=      5-min Rain = 0
KPD2 150156Z 35000KT 25/18 A2996 RMK A01 T02520177  RH  063%=      5-min Rain = 0
KPD2 150157Z 35001KT 25/17 A2996 RMK A01 T02530173  RH  061%=      5-min Rain = 0
KPD2 150158Z 35001KT 25/18 A2996 RMK A01 T02540182  RH  065%=      5-min Rain = 0
KPD2 150159Z 35001KT 25/19 A2996 RMK A01 T02540186  RH  066%=      5-min Rain = 0
KPD2 150200Z 35000KT 25/19 A2997 RMK A01 T02540189  RH  067%=      5-min Rain = 0
KPD2 150201Z 35000KT 25/19 A2997 RMK A01 T02540192  RH  069%=      5-min Rain = 0
KPD2 150202Z 35001KT 25/19 A2997 RMK A01 T02530193  RH  069%=      5-min Rain = 0
KPD2 150203Z 35000KT 25/19 A2997 RMK A01 T02520191  RH  069%=      5-min Rain = 0
KPD2 150204Z 35000KT 25/19 A2997 RMK A01 T02510188  RH  068%=      5-min Rain = 0
KPD2 150205Z 35001KT 25/19 A2997 RMK A01 T02510191  RH  069%=      5-min Rain = 0
KPD2 150206Z 30001KT 25/19 A2997 RMK A01 T02500194  RH  071%=      5-min Rain = 0
KPD2 150207Z 26002KT 25/20 A2997 RMK A01 T02500195  RH  072%=      5-min Rain = 0
KPD2 150208Z 25000KT 25/19 A2997 RMK A01 T02490194  RH  072%=      5-min Rain = 0
KPD2 150209Z 25001KT 25/19 A2997 RMK A01 T02490193  RH  071%=      5-min Rain = 0
KPD2 150210Z 25001KT 25/19 A2997 RMK A01 T02480191  RH  071%=      5-min Rain = 0
KPD2 150211Z 00000KT 25/19 A2997 RMK A01 T02480193  RH  071%=      5-min Rain = 0
KPD2 150212Z 00001KT 25/19 A2997 RMK A01 T02480191  RH  071%=      5-min Rain = 0
KPD2 150213Z 01002KT 25/19 A2998 RMK A01 T02480188  RH  070%=      5-min Rain = 0
KPD2 150214Z 01003KT 25/19 A2998 RMK A01 T02480187  RH  069%=      5-min Rain = 0
KPD2 150215Z 02003KT 25/19 A2998 RMK A01 T02480188  RH  069%=      5-min Rain = 0
KPD2 150216Z 00004KT 25/19 A2998 RMK A01 T02470186  RH  069%=      5-min Rain = 0
KPD2 150217Z 00005KT 25/19 A2998 RMK A01 T02480187  RH  069%=      5-min Rain = 0
KPD2 150218Z 35003KT 25/18 A2998 RMK A01 T02480184  RH  068%=      5-min Rain = 0
KPD2 150219Z 33003KT 25/18 A2999 RMK A01 T02490181  RH  066%=      5-min Rain = 0
KPD2 150220Z 33004KT 25/19 A2999 RMK A01 T02500186  RH  067%=      5-min Rain = 0
KPD2 150221Z 31004KT 25/19 A2999 RMK A01 T02510185  RH  067%=      5-min Rain = 0
KPD2 150222Z 30004KT 25/18 A30 RMK A01 T02520177  RH  063%=      5-min Rain = 0
KPD2 150223Z 28004KT 25/18 A30 RMK A01 T02540182  RH  064%=      5-min Rain = 0
KPD2 150224Z 27004KT 25/18 A30 RMK A01 T02540183  RH  064%=      5-min Rain = 0
KPD2 150225Z 27005KT 26/19 A3001 RMK A01 T02550185  RH  065%=      5-min Rain = 0
KPD2 150226Z 28004KT 25/19 A3001 RMK A01 T02540185  RH  066%=      5-min Rain = 0
KPD2 150227Z 30004KT 25/19 A3001 RMK A01 T02530187  RH  067%=      5-min Rain = 0
KPD2 150228Z 29004KT 25/19 A3001 RMK A01 T02520187  RH  067%=      5-min Rain = 0
KPD2 150229Z 28004KT 25/19 A3002 RMK A01 T02520188  RH  068%=      5-min Rain = 0
KPD2 150230Z 29003KT 25/19 A3002 RMK A01 T02520186  RH  067%=      5-min Rain = 0
KPD2 150231Z 28003KT 25/19 A3002 RMK A01 T02520187  RH  067%=      5-min Rain = 0
KPD2 150232Z 32003KT 25/19 A3002 RMK A01 T02520185  RH  067%=      5-min Rain = 0
KPD2 150233Z 01002KT 25/19 A3001 RMK A01 T02520188  RH  068%=      5-min Rain = 0
KPD2 150234Z 08002KT 25/19 A3001 RMK A01 T02520187  RH  067%=      5-min Rain = 0
KPD2 150235Z 12004KT 25/19 A3001 RMK A01 T02520187  RH  067%=      5-min Rain = 0
KPD2 150236Z 14003KT 25/18 A3001 RMK A01 T02530184  RH  066%=      5-min Rain = 0
KPD2 150237Z 16003KT 25/18 A3002 RMK A01 T02540184  RH  065%=      5-min Rain = 0
KPD2 150238Z 15006KT 26/18 A3001 RMK A01 T02550184  RH  065%=      5-min Rain = 0
KPD2 150239Z 15006KT 26/18 A3001 RMK A01 T02550182  RH  064%=      5-min Rain = 0
KPD2 150240Z 15006KT 26/18 A3001 RMK A01 T02550177  RH  062%=      5-min Rain = 0
KPD2 150241Z 18007KT 26/17 A3001 RMK A01 T02560174  RH  060%=      5-min Rain = 0
KPD2 150242Z 19006KT 26/17 A3001 RMK A01 T02570170  RH  059%=      5-min Rain = 0
KPD2 150243Z 19006KT 26/16 A30 RMK A01 T02570161  RH  055%=      5-min Rain = 0
KPD2 150244Z 18010KT 26/15 A30 RMK A01 T02590154  RH  052%=      5-min Rain = 0.01
KPD2 150245Z 19014G21KT 26/14 A2999 RMK A01 T02640143  RH  047%=      5-min Rain = 0
KPD2 150246Z 18014G19KT 27/14 A2999 RMK A01 T02710140  RH  045%=      5-min Rain = 0
KPD2 150247Z 18011G16KT 27/14 A2999 RMK A01 T02740142  RH  044%=      5-min Rain = 0
KPD2 150248Z 18011G16KT 28/14 A2999 RMK A01 T02750139  RH  043%=      5-min Rain = 0
KPD2 150249Z 21012G18KT 28/14 A2999 RMK A01 T02770140  RH  043%=      5-min Rain = 0
KPD2 150250Z 19008G13KT 28/14 A2999 RMK A01 T02780140  RH  043%=      5-min Rain = 0
KPD2 150251Z 21006KT 28/14 A2999 RMK A01 T02780141  RH  043%=      5-min Rain = 0
KPD2 150252Z 26004KT 28/14 A2999 RMK A01 T02780142  RH  043%=      5-min Rain = 0
KPD2 150253Z 26002KT 28/14 A2999 RMK A01 T02770140  RH  043%=      5-min Rain = 0
KPD2 150254Z 27005G13KT 28/14 A30 RMK A01 T02760144  RH  044%=      5-min Rain = 0
KPD2 150255Z 27011KT 28/15 A30 RMK A01 T02750145  RH  045%=      5-min Rain = 0
KPD2 150256Z 25008G18KT 27/14 A30 RMK A01 T02730144  RH  045%=      5-min Rain = 0
KPD2 150257Z 26009KT 27/14 A3001 RMK A01 T02730140  RH  044%=      5-min Rain = 0
KPD2 150258Z 28006KT 27/15 A3001 RMK A01 T02730145  RH  045%=      5-min Rain = 0
KPD2 150259Z 27005KT 27/15 A3001 RMK A01 T02720147  RH  046%=      5-min Rain = 0
KPD2 150300Z 25006KT 27/15 A3001 RMK A01 T02710146  RH  046%=      5-min Rain = 0
KPD2 150301Z 25008G14KT 27/14 A30 RMK A01 T02700144  RH  046%=      5-min Rain = 0
KPD2 150302Z 25010KT 27/13 A30 RMK A01 T02710134  RH  043%=      5-min Rain = 0
KPD2 150303Z 24008G14KT 28/14 A30 RMK A01 T02750136  RH  042%=      5-min Rain = 0
KPD2 150304Z 24007G15KT 28/13 A2999 RMK A01 T02770134  RH  041%=      5-min Rain = 0
KPD2 150305Z 23007G14KT 28/14 A2999 RMK A01 T02790137  RH  042%=      5-min Rain = 0
KPD2 150306Z 21004G10KT 28/14 A2999 RMK A01 T02790138  RH  042%=      5-min Rain = 0
KPD2 150307Z 21008G13KT 28/13 A2999 RMK A01 T02800134  RH  041%=      5-min Rain = 0
KPD2 150308Z 24011G19KT 28/14 A2999 RMK A01 T02820135  RH  040%=      5-min Rain = 0
KPD2 150309Z 23004G10KT 28/14 A2999 RMK A01 T02830136  RH  040%=      5-min Rain = 0
KPD2 150310Z 24008G13KT 28/14 A2999 RMK A01 T02840135  RH  040%=      5-min Rain = 0
KPD2 150311Z 25007KT 29/14 A2999 RMK A01 T02850137  RH  040%=      5-min Rain = 0
KPD2 150312Z 26006G13KT 29/14 A2999 RMK A01 T02850140  RH  041%=      5-min Rain = 0
KPD2 150313Z 25008KT 28/14 A2999 RMK A01 T02840137  RH  041%=      5-min Rain = 0
KPD2 150314Z 25008KT 28/14 A2999 RMK A01 T02840140  RH  041%=      5-min Rain = 0
KPD2 150315Z 26010KT 28/14 A2999 RMK A01 T02830137  RH  041%=      5-min Rain = 0
KPD2 150316Z 26008KT 28/14 A2999 RMK A01 T02830138  RH  041%=      5-min Rain = 0
KPD2 150317Z 23005KT 28/14 A2999 RMK A01 T02820141  RH  042%=      5-min Rain = 0
KPD2 150318Z 24005KT 28/14 A2999 RMK A01 T02810137  RH  041%=      5-min Rain = 0
KPD2 150319Z 23005KT 28/14 A2999 RMK A01 T02820135  RH  041%=      5-min Rain = 0
KPD2 150320Z 25002G9KT 28/13 A2999 RMK A01 T02820132  RH  039%=      5-min Rain = 0
KPD2 150321Z 25005G10KT 28/13 A30 RMK A01 T02840133  RH  040%=      5-min Rain = 0
KPD2 150322Z 14003KT 29/13 A2999 RMK A01 T02850134  RH  039%=      5-min Rain = 0
KPD2 150323Z 21002KT 29/13 A30 RMK A01 T02850130  RH  038%=      5-min Rain = 0
KPD2 150324Z 26004KT 29/13 A30 RMK A01 T02870131  RH  038%=      5-min Rain = 0
KPD2 150325Z 30002KT 29/14 A30 RMK A01 T02880135  RH  039%=      5-min Rain = 0
KPD2 150326Z 24006KT 29/13 A30 RMK A01 T02870133  RH  039%=      5-min Rain = 0
KPD2 150327Z 20002KT 29/13 A30 RMK A01 T02870134  RH  039%=      5-min Rain = 0
KPD2 150328Z 23004KT 29/13 A30 RMK A01 T02870133  RH  039%=      5-min Rain = 0
KPD2 150329Z 23003KT 29/13 A30 RMK A01 T02870133  RH  039%=      5-min Rain = 0
KPD2 150330Z 25004KT 29/14 A30 RMK A01 T02870135  RH  039%=      5-min Rain = 0
KPD2 150331Z 21004G10KT 29/13 A30 RMK A01 T02860133  RH  039%=      5-min Rain = 0
KPD2 150332Z 20001KT 29/13 A30 RMK A01 T02860134  RH  039%=      5-min Rain = 0
KPD2 150333Z 23008G14KT 29/13 A30 RMK A01 T02850132  RH  039%=      5-min Rain = 0
KPD2 150334Z 24006G15KT 29/13 A30 RMK A01 T02870129  RH  038%=      5-min Rain = 0
KPD2 150335Z 22003KT 29/13 A30 RMK A01 T02890130  RH  038%=      5-min Rain = 0
KPD2 150336Z 24007G12KT 29/13 A30 RMK A01 T02890134  RH  038%=      5-min Rain = 0
KPD2 150337Z 26007G12KT 29/13 A30 RMK A01 T02890134  RH  039%=      5-min Rain = 0
KPD2 150338Z 22004KT 29/13 A30 RMK A01 T02880133  RH  039%=      5-min Rain = 0
KPD2 150339Z 26009G15KT 29/13 A30 RMK A01 T02880131  RH  038%=      5-min Rain = 0
KPD2 150340Z 23007KT 29/13 A30 RMK A01 T02880129  RH  038%=      5-min Rain = 0
KPD2 150341Z 25008G13KT 29/13 A30 RMK A01 T02900130  RH  037%=      5-min Rain = 0
KPD2 150342Z 23009KT 29/13 A30 RMK A01 T02920133  RH  038%=      5-min Rain = 0
KPD2 150343Z 21005KT 29/13 A30 RMK A01 T02910132  RH  037%=      5-min Rain = 0
KPD2 150344Z 23007KT 29/13 A30 RMK A01 T02920132  RH  038%=      5-min Rain = 0
KPD2 150345Z 24006G12KT 29/13 A30 RMK A01 T02920130  RH  037%=      5-min Rain = 0
KPD2 150346Z 23008G14KT 29/13 A30 RMK A01 T02920129  RH  037%=      5-min Rain = 0
KPD2 150347Z 23008G15KT 29/13 A30 RMK A01 T02930131  RH  037%=      5-min Rain = 0
KPD2 150348Z 23006G14KT 29/13 A30 RMK A01 T02940133  RH  037%=      5-min Rain = 0
KPD2 150349Z 23010G15KT 29/13 A30 RMK A01 T02930133  RH  038%=      5-min Rain = 0
KPD2 150350Z 22008G15KT 29/13 A30 RMK A01 T02920133  RH  038%=      5-min Rain = 0
KPD2 150351Z 22007KT 29/13 A30 RMK A01 T02910133  RH  038%=      5-min Rain = 0
KPD2 150352Z 21008KT 29/13 A30 RMK A01 T02910133  RH  038%=      5-min Rain = 0
KPD2 150353Z 22010G15KT 29/13 A30 RMK A01 T02910132  RH  038%=      5-min Rain = 0
KPD2 150354Z 22009G16KT 29/13 A30 RMK A01 T02900134  RH  038%=      5-min Rain = 0
KPD2 150355Z 23010G18KT 29/13 A30 RMK A01 T02890133  RH  038%=      5-min Rain = 0
KPD2 150356Z 24005G10KT 29/13 A30 RMK A01 T02890133  RH  038%=      5-min Rain = 0
KPD2 150357Z 23005KT 29/14 A30 RMK A01 T02890135  RH  039%=      5-min Rain = 0
KPD2 150358Z 20007KT 29/14 A30 RMK A01 T02870135  RH  039%=      5-min Rain = 0
KPD2 150359Z 19006KT 29/13 A30 RMK A01 T02860134  RH  039%=      5-min Rain = 0
KPD2 150400Z 22009KT 29/13 A30 RMK A01 T02860131  RH  039%=      5-min Rain = 0
KPD2 150401Z 23005KT 29/13 A30 RMK A01 T02870130  RH  038%=      5-min Rain = 0
KPD2 150402Z 20002KT 29/13 A30 RMK A01 T02880132  RH  038%=      5-min Rain = 0
KPD2 150403Z 20005KT 29/13 A30 RMK A01 T02880132  RH  038%=      5-min Rain = 0
KPD2 150404Z 20003KT 29/13 A30 RMK A01 T02870131  RH  038%=      5-min Rain = 0
KPD2 150405Z 21007G12KT 29/13 A30 RMK A01 T02870130  RH  038%=      5-min Rain = 0
KPD2 150406Z 22003KT 29/13 A30 RMK A01 T02880129  RH  038%=      5-min Rain = 0
KPD2 150407Z 24003KT 29/13 A30 RMK A01 T02880126  RH  037%=      5-min Rain = 0
KPD2 150408Z 18001KT 29/13 A30 RMK A01 T02900127  RH  037%=      5-min Rain = 0
KPD2 150409Z 20001KT 29/13 A3001 RMK A01 T02900129  RH  037%=      5-min Rain = 0
KPD2 150410Z 20004KT 29/13 A3001 RMK A01 T02900128  RH  037%=      5-min Rain = 0
KPD2 150411Z 13002KT 29/13 A3001 RMK A01 T02890127  RH  037%=      5-min Rain = 0
KPD2 150412Z 14001KT 29/13 A3001 RMK A01 T02900128  RH  037%=      5-min Rain = 0
KPD2 150413Z 07001KT 29/13 A3002 RMK A01 T02900131  RH  038%=      5-min Rain = 0
KPD2 150414Z 03005KT 29/13 A3002 RMK A01 T02890130  RH  038%=      5-min Rain = 0
KPD2 150415Z 05005KT 29/13 A3002 RMK A01 T02890129  RH  037%=      5-min Rain = 0
KPD2 150416Z 03007G13KT 29/13 A3002 RMK A01 T02880129  RH  038%=      5-min Rain = 0
KPD2 150417Z 03009KT 29/13 A3002 RMK A01 T02880132  RH  038%=      5-min Rain = 0
KPD2 150418Z 04008KT 29/13 A3003 RMK A01 T02880131  RH  038%=      5-min Rain = 0
KPD2 150419Z 08008KT 29/13 A3003 RMK A01 T02880127  RH  037%=      5-min Rain = 0
KPD2 150420Z 07004KT 29/13 A3003 RMK A01 T02910127  RH  036%=      5-min Rain = 0
KPD2 150421Z 09005KT 29/13 A3003 RMK A01 T02920129  RH  037%=      5-min Rain = 0
KPD2 150422Z 09008KT 29/13 A3003 RMK A01 T02930131  RH  037%=      5-min Rain = 0
KPD2 150423Z 09003KT 29/13 A3003 RMK A01 T02920131  RH  037%=      5-min Rain = 0
KPD2 150424Z 12004KT 29/13 A3003 RMK A01 T02920133  RH  038%=      5-min Rain = 0
KPD2 150425Z 11005KT 29/13 A3003 RMK A01 T02920131  RH  037%=      5-min Rain = 0
KPD2 150426Z 08004KT 29/13 A3003 RMK A01 T02920125  RH  036%=      5-min Rain = 0
KPD2 150427Z 06006KT 29/13 A3003 RMK A01 T02940127  RH  036%=      5-min Rain = 0
KPD2 150428Z 08004KT 30/13 A3003 RMK A01 T02950131  RH  036%=      5-min Rain = 0
KPD2 150429Z 05006KT 30/13 A3003 RMK A01 T02950131  RH  037%=      5-min Rain = 0
KPD2 150430Z 05003KT 29/14 A3002 RMK A01 T02940136  RH  038%=      5-min Rain = 0
KPD2 150431Z 18004KT 29/14 A3003 RMK A01 T02930137  RH  038%=      5-min Rain = 0
KPD2 150432Z 19005KT 29/14 A3003 RMK A01 T02900139  RH  039%=      5-min Rain = 0
KPD2 150433Z 19004KT 29/14 A3002 RMK A01 T02870141  RH  041%=      5-min Rain = 0
KPD2 150434Z 19004KT 28/14 A3002 RMK A01 T02840143  RH  042%=      5-min Rain = 0
KPD2 150435Z 19004KT 28/15 A3002 RMK A01 T02800145  RH  044%=      5-min Rain = 0
KPD2 150436Z 20003KT 28/15 A3002 RMK A01 T02780145  RH  044%=      5-min Rain = 0
KPD2 150437Z 18004KT 28/15 A3002 RMK A01 T02760145  RH  045%=      5-min Rain = 0
KPD2 150438Z 15004KT 28/15 A3002 RMK A01 T02750145  RH  045%=      5-min Rain = 0
KPD2 150439Z 16003KT 27/15 A3002 RMK A01 T02730149  RH  047%=      5-min Rain = 0
KPD2 150440Z 17002KT 27/15 A3002 RMK A01 T02720148  RH  047%=      5-min Rain = 0
KPD2 150441Z 17000KT 27/15 A3002 RMK A01 T02700152  RH  048%=      5-min Rain = 0
KPD2 150442Z 08001KT 27/15 A3002 RMK A01 T02680149  RH  048%=      5-min Rain = 0
KPD2 150443Z 03002KT 27/15 A3002 RMK A01 T02660148  RH  048%=      5-min Rain = 0
KPD2 150444Z 01004KT 26/15 A3002 RMK A01 T02640148  RH  049%=      5-min Rain = 0
KPD2 150445Z 01007KT 26/15 A3003 RMK A01 T02620154  RH  051%=      5-min Rain = 0
KPD2 150446Z 01008KT 26/16 A3004 RMK A01 T02610156  RH  053%=      5-min Rain = 0
KPD2 150447Z 02015G27KT 26/15 A3004 RMK A01 T02600150  RH  051%=      5-min Rain = 0
KPD2 150448Z 02019G25KT 26/15 A3005 RMK A01 T02630146  RH  048%=      5-min Rain = 0
KPD2 150449Z 01016G21KT 27/15 A3005 RMK A01 T02670148  RH  048%=      5-min Rain = 0
KPD2 150450Z 34015G21KT 27/15 A3005 RMK A01 T02690148  RH  048%=      5-min Rain = 0
KPD2 150451Z 02010KT 27/15 A3006 RMK A01 T02700149  RH  048%=      5-min Rain = 0
KPD2 150452Z 01015G23KT 27/15 A3006 RMK A01 T02700146  RH  047%=      5-min Rain = 0
KPD2 150453Z 02014G20KT 27/14 A3006 RMK A01 T02710143  RH  045%=      5-min Rain = 0
KPD2 150454Z 04012G21KT 27/14 A3006 RMK A01 T02740139  RH  043%=      5-min Rain = 0
KPD2 150455Z 03010KT 28/14 A3006 RMK A01 T02790138  RH  042%=      5-min Rain = 0
KPD2 150456Z 02008KT 28/14 A3005 RMK A01 T02810139  RH  042%=      5-min Rain = 0
KPD2 150457Z 03004KT 28/14 A3005 RMK A01 T02830136  RH  041%=      5-min Rain = 0
KPD2 150458Z 02008KT 28/13 A3005 RMK A01 T02840133  RH  039%=      5-min Rain = 0
KPD2 150459Z 03007KT 29/13 A3005 RMK A01 T02870128  RH  038%=      5-min Rain = 0

Page generated in 0.1185 seconds.